Wetterdaten: Samstag, 22.08.2020
Datum Zeit Temp. Aussen Temp. o. S. Temp +5cm Feuchte Auss Luftdruck Regen Sonnenschein Regendauer Solar Windben Empfang
22.08.2020 00:00 23,4 C 22,2 C 21,7 C 78 % 1011,5 hPa 0,0 l/m 0 min 0 min 0 W/m 6,4 km/h (2 Bft) 97,87 %
22.08.2020 00:02 23,4 C 22,2 C 21,7 C 78 % 1011,6 hPa 0,0 l/m 0 min 0 min 0 W/m 3,2 km/h (1 Bft) 95,12 %
22.08.2020 00:04 23,4 C 22,2 C 21,7 C 78 % 1011,5 hPa 0,0 l/m 0 min 0 min 0 W/m 0,0 km/h (0 Bft) 95,74 %
22.08.2020 00:08 23,3 C 22,2 C 21,7 C 78 % 1011,6 hPa 0,0 l/m 0 min 0 min 0 W/m 3,2 km/h (1 Bft) 95,74 %
22.08.2020 00:10 23,3 C 22,2 C 21,7 C 78 % 1011,6 hPa 0,0 l/m 0 min 0 min 0 W/m 0,0 km/h (0 Bft) 98,11 %
22.08.2020 00:12 23,3 C 22,2 C 21,7 C 78 % 1011,6 hPa 0,0 l/m 0 min 0 min 0 W/m 3,2 km/h (1 Bft) 97,87 %
22.08.2020 00:14 23,3 C 22,2 C 21,7 C 78 % 1011,6 hPa 0,0 l/m 0 min 0 min 0 W/m 9,7 km/h (2 Bft) 97,14 %
22.08.2020 00:16 23,3 C 22,2 C 21,7 C 78 % 1011,6 hPa 0,0 l/m 0 min 0 min 0 W/m 0,0 km/h (0 Bft) 97,96 %
22.08.2020 00:18 23,3 C 22,2 C 21,7 C 78 % 1011,6 hPa 0,0 l/m 0 min 0 min 0 W/m 0,0 km/h (0 Bft) 98,00 %
22.08.2020 00:20 23,2 C 22,2 C 21,7 C 78 % 1011,7 hPa 0,0 l/m 0 min 0 min 0 W/m 3,2 km/h (1 Bft) 97,83 %
22.08.2020 00:22 23,2 C 22,2 C 21,7 C 78 % 1011,7 hPa 0,0 l/m 0 min 0 min 0 W/m 0,0 km/h (0 Bft) 97,87 %
22.08.2020 00:24 23,2 C 22,2 C 21,7 C 78 % 1011,6 hPa 0,0 l/m 0 min 0 min 0 W/m 9,7 km/h (2 Bft) 97,87 %
22.08.2020 00:26 23,2 C 22,2 C 21,7 C 78 % 1011,7 hPa 0,0 l/m 0 min 0 min 0 W/m 12,9 km/h (3 Bft) 93,62 %
22.08.2020 00:28 23,2 C 22,2 C 21,7 C 78 % 1011,6 hPa 0,0 l/m 0 min 0 min 0 W/m 3,2 km/h (1 Bft) 97,73 %
22.08.2020 00:30 23,2 C 22,2 C 21,7 C 78 % 1011,6 hPa 0,0 l/m 0 min 0 min 0 W/m 6,4 km/h (2 Bft) 98,00 %
22.08.2020 00:32 23,2 C 22,2 C 21,7 C 78 % 1011,7 hPa 0,0 l/m 0 min 0 min 0 W/m 0,0 km/h (0 Bft) 97,87 %
22.08.2020 00:34 23,2 C 21,7 C 21,7 C 78 % 1011,7 hPa 0,0 l/m 0 min 0 min 0 W/m 0,0 km/h (0 Bft) 97,83 %
22.08.2020 00:36 23,1 C 21,7 C 21,7 C 78 % 1011,7 hPa 0,0 l/m 0 min 0 min 0 W/m 0,0 km/h (0 Bft) 97,87 %
22.08.2020 00:38 23,1 C 21,7 C 21,7 C 78 % 1011,6 hPa 0,0 l/m 0 min 0 min 0 W/m 3,2 km/h (1 Bft) 97,87 %
22.08.2020 00:40 23,1 C 21,7 C 21,7 C 78 % 1011,7 hPa 0,0 l/m 0 min 0 min 0 W/m 0,0 km/h (0 Bft) 97,87 %
22.08.2020 00:42 23,1 C 21,7 C 21,1 C 78 % 1011,7 hPa 0,0 l/m 0 min 0 min 0 W/m 0,0 km/h (0 Bft) 97,87 %
22.08.2020 00:44 23,1 C 21,7 C 21,1 C 78 % 1011,7 hPa 0,0 l/m 0 min 0 min 0 W/m 0,0 km/h (0 Bft) 97,67 %
22.08.2020 00:46 23,1 C 21,7 C 21,1 C 78 % 1011,7 hPa 0,0 l/m 0 min 0 min 0 W/m 0,0 km/h (0 Bft) 97,87 %
22.08.2020 00:48 23,1 C 21,7 C 21,1 C 78 % 1011,7 hPa 0,0 l/m 0 min 0 min 0 W/m 0,0 km/h (0 Bft) 95,74 %
22.08.2020 00:50 23,1 C 21,7 C 21,1 C 78 % 1011,7 hPa 0,0 l/m 0 min 0 min 0 W/m 0,0 km/h (0 Bft) 97,87 %
22.08.2020 00:52 23,1 C 21,7 C 21,1 C 78 % 1011,7 hPa 0,0 l/m 0 min 0 min 0 W/m 0,0 km/h (0 Bft) 97,87 %
22.08.2020 00:54 23,1 C 21,7 C 21,1 C 78 % 1011,8 hPa 0,0 l/m 0 min 0 min 0 W/m 0,0 km/h (0 Bft) 97,83 %
22.08.2020 00:56 23,0 C 21,7 C 21,1 C 78 % 1011,8 hPa 0,0 l/m 0 min 0 min 0 W/m 0,0 km/h (0 Bft) 97,87 %
22.08.2020 00:58 23,0 C 21,7 C 21,1 C 78 % 1011,8 hPa 0,0 l/m 0 min 0 min 0 W/m 0,0 km/h (0 Bft) 95,74 %
22.08.2020 01:00 23,0 C 22,2 C 21,1 C 78 % 1011,8 hPa 0,0 l/m 0 min 0 min 0 W/m 0,0 km/h (0 Bft) 96,00 %
22.08.2020 01:02 22,9 C 22,2 C 21,7 C 78 % 1011,8 hPa 0,0 l/m 0 min 0 min 0 W/m 0,0 km/h (0 Bft) 100,00 %
22.08.2020 01:04 22,9 C 21,7 C 21,1 C 78 % 1011,9 hPa 0,0 l/m 0 min 0 min 0 W/m 0,0 km/h (0 Bft) 97,87 %
22.08.2020 01:06 22,9 C 21,7 C 21,1 C 78 % 1011,9 hPa 0,0 l/m 0 min 0 min 0 W/m 3,2 km/h (1 Bft) 100,00 %
22.08.2020 01:08 22,9 C 21,7 C 21,7 C 78 % 1012,0 hPa 0,0 l/m 0 min 0 min 0 W/m 0,0 km/h (0 Bft) 100,00 %
22.08.2020 01:10 22,9 C 22,2 C 21,7 C 78 % 1012,0 hPa 0,0 l/m 0 min 0 min 0 W/m 3,2 km/h (1 Bft) 100,00 %
22.08.2020 01:12 22,9 C 22,2 C 21,7 C 78 % 1012,0 hPa 0,0 l/m 0 min 0 min 0 W/m 9,7 km/h (2 Bft) 97,87 %
22.08.2020 01:14 22,9 C 22,2 C 21,7 C 78 % 1012,1 hPa 0,0 l/m 0 min 0 min 0 W/m 0,0 km/h (0 Bft) 97,87 %
22.08.2020 01:16 22,9 C 22,2 C 21,7 C 77 % 1012,1 hPa 0,0 l/m 0 min 0 min 0 W/m 3,2 km/h (1 Bft) 100,00 %
22.08.2020 01:18 22,9 C 22,2 C 21,7 C 77 % 1012,1 hPa 0,0 l/m 0 min 0 min 0 W/m 0,0 km/h (0 Bft) 100,00 %
22.08.2020 01:20 22,9 C 21,7 C 21,7 C 78 % 1012,1 hPa 0,0 l/m 0 min 0 min 0 W/m 0,0 km/h (0 Bft) 97,83 %
22.08.2020 01:22 22,9 C 21,7 C 21,1 C 78 % 1012,1 hPa 0,0 l/m 0 min 0 min 0 W/m 0,0 km/h (0 Bft) 100,00 %
22.08.2020 01:24 22,9 C 21,1 C 21,1 C 78 % 1012,1 hPa 0,0 l/m 0 min 0 min 0 W/m 0,0 km/h (0 Bft) 100,00 %
22.08.2020 01:26 22,9 C 21,1 C 21,1 C 78 % 1012,1 hPa 0,0 l/m 0 min 0 min 0 W/m 0,0 km/h (0 Bft) 100,00 %
22.08.2020 01:28 22,9 C 21,1 C 21,1 C 78 % 1012,1 hPa 0,0 l/m 0 min 0 min 0 W/m 0,0 km/h (0 Bft) 100,00 %
22.08.2020 01:30 22,9 C 20,6 C 20,6 C 79 % 1012,1 hPa 0,0 l/m 0 min 0 min 0 W/m 0,0 km/h (0 Bft) 97,87 %
22.08.2020 01:32 22,8 C 20,6 C 20,6 C 79 % 1012,1 hPa 0,0 l/m 0 min 0 min 0 W/m 0,0 km/h (0 Bft) 100,00 %
22.08.2020 01:34 22,8 C 20,6 C 20,6 C 79 % 1012,1 hPa 0,0 l/m 0 min 0 min 0 W/m 0,0 km/h (0 Bft) 100,00 %
22.08.2020 01:36 22,8 C 20,6 C 20,6 C 79 % 1012,1 hPa 0,0 l/m 0 min 0 min 0 W/m 0,0 km/h (0 Bft) 100,00 %
22.08.2020 01:38 22,8 C 20,6 C 20,0 C 79 % 1012,1 hPa 0,0 l/m 0 min 0 min 0 W/m 0,0 km/h (0 Bft) 97,87 %
22.08.2020 01:40 22,7 C 20,0 C 20,0 C 79 % 1012,1 hPa 0,0 l/m 0 min 0 min 0 W/m 0,0 km/h (0 Bft) 97,87 %
22.08.2020 01:42 22,7 C 20,0 C 20,0 C 79 % 1012,1 hPa 0,0 l/m 0 min 0 min 0 W/m 0,0 km/h (0 Bft) 97,87 %
22.08.2020 01:44 22,7 C 20,0 C 20,0 C 79 % 1012,1 hPa 0,0 l/m 0 min 0 min 0 W/m 0,0 km/h (0 Bft) 97,83 %
22.08.2020 01:46 22,6 C 20,0 C 20,0 C 79 % 1012,1 hPa 0,0 l/m 0 min 0 min 0 W/m 3,2 km/h (1 Bft) 97,87 %
22.08.2020 01:48 22,6 C 20,0 C 20,0 C 79 % 1012,1 hPa 0,0 l/m 0 min 0 min 0 W/m 0,0 km/h (0 Bft) 97,87 %
22.08.2020 01:50 22,5 C 20,0 C 20,0 C 79 % 1012,1 hPa 0,0 l/m 0 min 0 min 0 W/m 0,0 km/h (0 Bft) 95,74 %
22.08.2020 01:52 22,4 C 20,0 C 20,0 C 79 % 1012,1 hPa 0,0 l/m 0 min 0 min 0 W/m 0,0 km/h (0 Bft) 95,74 %
22.08.2020 01:54 22,4 C 20,0 C 20,0 C 80 % 1012,1 hPa 0,0 l/m 0 min 0 min 0 W/m 0,0 km/h (0 Bft) 95,65 %
22.08.2020 01:56 22,3 C 20,0 C 20,0 C 80 % 1012,1 hPa 0,0 l/m 0 min 0 min 0 W/m 0,0 km/h (0 Bft) 91,49 %
22.08.2020 01:58 22,2 C 20,0 C 19,4 C 80 % 1012,1 hPa 0,0 l/m 0 min 0 min 0 W/m 0,0 km/h (0 Bft) 93,62 %
22.08.2020 02:00 22,2 C 20,0 C 20,0 C 80 % 1012,1 hPa 0,0 l/m 0 min 0 min 0 W/m 0,0 km/h (0 Bft) 93,62 %
22.08.2020 02:02 22,1 C 20,0 C 20,0 C 80 % 1012,1 hPa 0,0 l/m 0 min 0 min 0 W/m 0,0 km/h (0 Bft) 95,74 %
22.08.2020 02:04 22,1 C 20,0 C 20,0 C 80 % 1012,1 hPa 0,0 l/m 0 min 0 min 0 W/m 0,0 km/h (0 Bft) 95,74 %
22.08.2020 02:06 22,0 C 20,0 C 20,0 C 80 % 1012,1 hPa 0,0 l/m 0 min 0 min 0 W/m 0,0 km/h (0 Bft) 95,65 %
22.08.2020 02:08 21,9 C 20,0 C 20,0 C 80 % 1012,1 hPa 0,0 l/m 0 min 0 min 0 W/m 0,0 km/h (0 Bft) 93,62 %
22.08.2020 02:10 21,9 C 20,0 C 20,0 C 80 % 1012,1 hPa 0,0 l/m 0 min 0 min 0 W/m 0,0 km/h (0 Bft) 95,74 %
22.08.2020 02:12 21,9 C 20,0 C 20,0 C 81 % 1012,1 hPa 0,0 l/m 0 min 0 min 0 W/m 0,0 km/h (0 Bft) 93,62 %
22.08.2020 02:14 21,8 C 20,0 C 20,0 C 81 % 1012,2 hPa 0,0 l/m 0 min 0 min 0 W/m 0,0 km/h (0 Bft) 95,74 %
22.08.2020 02:16 21,8 C 20,0 C 20,0 C 81 % 1012,1 hPa 0,0 l/m 0 min 0 min 0 W/m 0,0 km/h (0 Bft) 95,74 %
22.08.2020 02:18 21,7 C 20,0 C 20,0 C 81 % 1012,1 hPa 0,0 l/m 0 min 0 min 0 W/m 0,0 km/h (0 Bft) 93,48 %
22.08.2020 02:20 21,7 C 20,0 C 20,0 C 81 % 1012,0 hPa 0,0 l/m 0 min 0 min 0 W/m 0,0 km/h (0 Bft) 95,74 %
22.08.2020 02:22 21,7 C 20,0 C 20,0 C 81 % 1012,1 hPa 0,0 l/m 0 min 0 min 0 W/m 0,0 km/h (0 Bft) 95,74 %
22.08.2020 02:24 21,6 C 20,0 C 20,0 C 81 % 1012,1 hPa 0,0 l/m 0 min 0 min 0 W/m 0,0 km/h (0 Bft) 95,74 %
22.08.2020 02:26 21,6 C 20,0 C 20,0 C 81 % 1012,1 hPa 0,0 l/m 0 min 0 min 0 W/m 0,0 km/h (0 Bft) 95,74 %
22.08.2020 02:28 21,6 C 20,0 C 20,0 C 81 % 1012,1 hPa 0,0 l/m 0 min 0 min 0 W/m 0,0 km/h (0 Bft) 97,87 %
22.08.2020 02:30 21,5 C 20,0 C 20,0 C 82 % 1012,1 hPa 0,0 l/m 0 min 0 min 0 W/m 0,0 km/h (0 Bft) 97,83 %
22.08.2020 02:32 21,5 C 20,0 C 20,0 C 82 % 1012,1 hPa 0,0 l/m 0 min 0 min 0 W/m 0,0 km/h (0 Bft) 95,74 %
22.08.2020 02:34 21,4 C 20,0 C 20,0 C 82 % 1012,1 hPa 0,0 l/m 0 min 0 min 0 W/m 0,0 km/h (0 Bft) 97,87 %
22.08.2020 02:36 21,4 C 20,0 C 20,0 C 82 % 1012,2 hPa 0,0 l/m 0 min 0 min 0 W/m 0,0 km/h (0 Bft) 93,62 %
22.08.2020 02:38 21,4 C 20,0 C 20,0 C 82 % 1012,3 hPa 0,0 l/m 0 min 0 min 0 W/m 0,0 km/h (0 Bft) 100,00 %
22.08.2020 02:40 21,4 C 20,0 C 19,4 C 82 % 1012,3 hPa 0,0 l/m 0 min 0 min 0 W/m 0,0 km/h (0 Bft) 100,00 %
22.08.2020 02:42 21,4 C 20,0 C 20,0 C 82 % 1012,3 hPa 0,0 l/m 0 min 0 min 0 W/m 0,0 km/h (0 Bft) 100,00 %
22.08.2020 02:44 21,3 C 20,0 C 19,4 C 82 % 1012,2 hPa 0,0 l/m 0 min 0 min 0 W/m 0,0 km/h (0 Bft) 100,00 %
22.08.2020 02:46 21,3 C 20,0 C 19,4 C 82 % 1012,2 hPa 0,0 l/m 0 min 0 min 0 W/m 0,0 km/h (0 Bft) 100,00 %
22.08.2020 02:48 21,3 C 20,0 C 19,4 C 82 % 1012,2 hPa 0,0 l/m 0 min 0 min 0 W/m 0,0 km/h (0 Bft) 100,00 %
22.08.2020 02:50 21,3 C 20,0 C 19,4 C 82 % 1012,3 hPa 0,0 l/m 0 min 0 min 0 W/m 0,0 km/h (0 Bft) 100,00 %
22.08.2020 02:52 21,2 C 20,0 C 19,4 C 82 % 1012,2 hPa 0,0 l/m 0 min 0 min 0 W/m 0,0 km/h (0 Bft) 95,92 %
22.08.2020 02:54 21,2 C 20,0 C 19,4 C 82 % 1012,1 hPa 0,0 l/m 0 min 0 min 0 W/m 0,0 km/h (0 Bft) 100,00 %
22.08.2020 02:56 21,2 C 20,0 C 19,4 C 82 % 1012,2 hPa 0,0 l/m 0 min 0 min 0 W/m 0,0 km/h (0 Bft) 100,00 %
22.08.2020 02:58 21,2 C 20,0 C 19,4 C 82 % 1012,2 hPa 0,0 l/m 0 min 0 min 0 W/m 0,0 km/h (0 Bft) 100,00 %
22.08.2020 03:00 21,1 C 20,0 C 19,4 C 82 % 1012,2 hPa 0,0 l/m 0 min 0 min 0 W/m 0,0 km/h (0 Bft) 100,00 %
22.08.2020 03:02 21,1 C 20,0 C 19,4 C 82 % 1012,3 hPa 0,0 l/m 0 min 0 min 0 W/m 0,0 km/h (0 Bft) 100,00 %
22.08.2020 03:04 21,1 C 20,0 C 20,0 C 82 % 1012,3 hPa 0,0 l/m 0 min 0 min 0 W/m 0,0 km/h (0 Bft) 100,00 %
22.08.2020 03:06 21,1 C 20,0 C 20,0 C 82 % 1012,3 hPa 0,0 l/m 0 min 0 min 0 W/m 0,0 km/h (0 Bft) 97,87 %
22.08.2020 03:08 21,1 C 20,0 C 20,0 C 82 % 1012,4 hPa 0,0 l/m 0 min 0 min 0 W/m 0,0 km/h (0 Bft) 100,00 %
22.08.2020 03:10 21,1 C 20,0 C 20,0 C 82 % 1012,4 hPa 0,0 l/m 0 min 0 min 0 W/m 0,0 km/h (0 Bft) 100,00 %
22.08.2020 03:12 21,1 C 20,0 C 20,0 C 82 % 1012,4 hPa 0,0 l/m 0 min 0 min 0 W/m 0,0 km/h (0 Bft) 100,00 %
22.08.2020 03:14 21,1 C 20,0 C 20,0 C 81 % 1012,5 hPa 0,0 l/m 0 min 0 min 0 W/m 0,0 km/h (0 Bft) 100,00 %
22.08.2020 03:16 21,1 C 20,0 C 20,0 C 81 % 1012,5 hPa 0,0 l/m 0 min 0 min 0 W/m 0,0 km/h (0 Bft) 100,00 %
22.08.2020 03:18 21,1 C 20,0 C 20,0 C 81 % 1012,5 hPa 0,0 l/m 0 min 0 min 0 W/m 0,0 km/h (0 Bft) 100,00 %
22.08.2020 03:20 21,1 C 20,0 C 20,0 C 81 % 1012,5 hPa 0,0 l/m 0 min 0 min 0 W/m 0,0 km/h (0 Bft) 100,00 %
22.08.2020 03:22 21,1 C 20,0 C 20,0 C 81 % 1012,5 hPa 0,0 l/m 0 min 0 min 0 W/m 0,0 km/h (0 Bft) 100,00 %
22.08.2020 03:24 21,1 C 20,0 C 20,0 C 81 % 1012,5 hPa 0,0 l/m 0 min 0 min 0 W/m 0,0 km/h (0 Bft) 100,00 %
22.08.2020 03:26 21,1 C 20,0 C 20,0 C 81 % 1012,5 hPa 0,0 l/m 0 min 0 min 0 W/m 0,0 km/h (0 Bft) 97,83 %
22.08.2020 03:28 21,1 C 20,0 C 20,0 C 81 % 1012,5 hPa 0,0 l/m 0 min 0 min 0 W/m 0,0 km/h (0 Bft) 100,00 %
22.08.2020 03:30 21,1 C 20,0 C 20,0 C 81 % 1012,5 hPa 0,0 l/m 0 min 0 min 0 W/m 0,0 km/h (0 Bft) 100,00 %
22.08.2020 03:32 21,1 C 20,0 C 19,4 C 81 % 1012,5 hPa 0,0 l/m 0 min 0 min 0 W/m 0,0 km/h (0 Bft) 97,87 %
22.08.2020 03:34 21,1 C 19,4 C 19,4 C 81 % 1012,5 hPa 0,0 l/m 0 min 0 min 0 W/m 0,0 km/h (0 Bft) 95,74 %
22.08.2020 03:36 21,1 C 19,4 C 19,4 C 81 % 1012,5 hPa 0,0 l/m 0 min 0 min 0 W/m 0,0 km/h (0 Bft) 97,87 %
22.08.2020 03:38 21,1 C 19,4 C 19,4 C 81 % 1012,5 hPa 0,0 l/m 0 min 0 min 0 W/m 0,0 km/h (0 Bft) 97,83 %
22.08.2020 03:40 21,0 C 19,4 C 19,4 C 81 % 1012,5 hPa 0,0 l/m 0 min 0 min 0 W/m 0,0 km/h (0 Bft) 97,87 %
22.08.2020 03:42 21,0 C 19,4 C 19,4 C 81 % 1012,5 hPa 0,0 l/m 0 min 0 min 0 W/m 0,0 km/h (0 Bft) 97,87 %
22.08.2020 03:44 21,0 C 19,4 C 19,4 C 81 % 1012,5 hPa 0,0 l/m 0 min 0 min 0 W/m 0,0 km/h (0 Bft) 97,87 %
22.08.2020 03:46 21,0 C 19,4 C 19,4 C 81 % 1012,6 hPa 0,0 l/m 0 min 0 min 0 W/m 0,0 km/h (0 Bft) 97,87 %
22.08.2020 03:48 20,9 C 19,4 C 19,4 C 81 % 1012,5 hPa 0,0 l/m 0 min 0 min 0 W/m 0,0 km/h (0 Bft) 97,87 %
22.08.2020 03:50 20,9 C 19,4 C 19,4 C 81 % 1012,6 hPa 0,0 l/m 0 min 0 min 0 W/m 0,0 km/h (0 Bft) 97,83 %
22.08.2020 03:52 20,9 C 19,4 C 19,4 C 81 % 1012,6 hPa 0,0 l/m 0 min 0 min 0 W/m 0,0 km/h (0 Bft) 97,87 %
22.08.2020 03:54 20,9 C 19,4 C 19,4 C 81 % 1012,6 hPa 0,0 l/m 0 min 0 min 0 W/m 0,0 km/h (0 Bft) 97,87 %
22.08.2020 03:56 20,9 C 19,4 C 19,4 C 81 % 1012,5 hPa 0,0 l/m 0 min 0 min 0 W/m 0,0 km/h (0 Bft) 95,74 %
22.08.2020 03:58 20,9 C 19,4 C 19,4 C 81 % 1012,5 hPa 0,0 l/m 0 min 0 min 0 W/m 0,0 km/h (0 Bft) 97,87 %
22.08.2020 04:00 20,9 C 19,4 C 19,4 C 81 % 1012,6 hPa 0,0 l/m 0 min 0 min 0 W/m 0,0 km/h (0 Bft) 97,87 %
22.08.2020 04:02 20,8 C 19,4 C 19,4 C 81 % 1012,7 hPa 0,0 l/m 0 min 0 min 0 W/m 0,0 km/h (0 Bft) 96,97 %
22.08.2020 04:04 20,8 C 19,4 C 19,4 C 81 % 1012,7 hPa 0,0 l/m 0 min 0 min 0 W/m 0,0 km/h (0 Bft) 95,74 %
22.08.2020 04:06 20,8 C 19,4 C 19,4 C 81 % 1012,7 hPa 0,0 l/m 0 min 0 min 0 W/m 0,0 km/h (0 Bft) 97,87 %
22.08.2020 04:08 20,8 C 19,4 C 19,4 C 81 % 1012,8 hPa 0,0 l/m 0 min 0 min 0 W/m 0,0 km/h (0 Bft) 97,87 %
22.08.2020 04:10 20,8 C 19,4 C 19,4 C 81 % 1012,8 hPa 0,0 l/m 0 min 0 min 0 W/m 0,0 km/h (0 Bft) 97,87 %
22.08.2020 04:12 20,8 C 19,4 C 19,4 C 81 % 1012,8 hPa 0,0 l/m 0 min 0 min 0 W/m 0,0 km/h (0 Bft) 95,65 %
22.08.2020 04:14 20,8 C 19,4 C 19,4 C 81 % 1012,8 hPa 0,0 l/m 0 min 0 min 0 W/m 0,0 km/h (0 Bft) 97,87 %
22.08.2020 04:16 20,8 C 19,4 C 19,4 C 81 % 1012,7 hPa 0,0 l/m 0 min 0 min 0 W/m 0,0 km/h (0 Bft) 95,74 %
22.08.2020 04:18 20,7 C 19,4 C 19,4 C 81 % 1012,8 hPa 0,0 l/m 0 min 0 min 0 W/m 0,0 km/h (0 Bft) 95,74 %
22.08.2020 04:20 20,7 C 19,4 C 19,4 C 81 % 1012,8 hPa 0,0 l/m 0 min 0 min 0 W/m 0,0 km/h (0 Bft) 97,87 %
22.08.2020 04:22 20,7 C 18,9 C 19,4 C 81 % 1012,7 hPa 0,0 l/m 0 min 0 min 0 W/m 0,0 km/h (0 Bft) 97,87 %
22.08.2020 04:24 20,7 C 18,9 C 18,9 C 81 % 1012,8 hPa 0,0 l/m 0 min 0 min 0 W/m 0,0 km/h (0 Bft) 93,48 %
22.08.2020 04:26 20,7 C 18,9 C 18,9 C 81 % 1012,8 hPa 0,0 l/m 0 min 0 min 0 W/m 0,0 km/h (0 Bft) 95,74 %
22.08.2020 04:28 20,6 C 18,9 C 18,9 C 81 % 1012,8 hPa 0,0 l/m 0 min 0 min 0 W/m 0,0 km/h (0 Bft) 97,87 %
22.08.2020 04:30 20,6 C 18,9 C 18,9 C 81 % 1012,9 hPa 0,0 l/m 0 min 0 min 0 W/m 0,0 km/h (0 Bft) 100,00 %
22.08.2020 04:32 20,6 C 18,9 C 18,9 C 81 % 1012,9 hPa 0,0 l/m 0 min 0 min 0 W/m 0,0 km/h (0 Bft) 97,87 %
22.08.2020 04:34 20,6 C 18,9 C 18,9 C 81 % 1012,9 hPa 0,0 l/m 0 min 0 min 0 W/m 0,0 km/h (0 Bft) 97,87 %
22.08.2020 04:36 20,5 C 18,9 C 18,9 C 81 % 1012,9 hPa 0,0 l/m 0 min 0 min 0 W/m 0,0 km/h (0 Bft) 95,65 %
22.08.2020 04:38 20,5 C 19,4 C 18,9 C 81 % 1012,9 hPa 0,0 l/m 0 min 0 min 0 W/m 0,0 km/h (0 Bft) 91,49 %
22.08.2020 04:40 20,4 C 18,9 C 18,9 C 81 % 1012,9 hPa 0,0 l/m 0 min 0 min 0 W/m 0,0 km/h (0 Bft) 95,74 %
22.08.2020 04:42 20,4 C 18,9 C 18,9 C 81 % 1012,9 hPa 0,0 l/m 0 min 0 min 0 W/m 0,0 km/h (0 Bft) 89,36 %
22.08.2020 04:44 20,4 C 18,9 C 18,9 C 81 % 1012,9 hPa 0,0 l/m 0 min 0 min 0 W/m 0,0 km/h (0 Bft) 95,74 %
22.08.2020 04:46 20,4 C 18,9 C 18,9 C 81 % 1012,9 hPa 0,0 l/m 0 min 0 min 0 W/m 0,0 km/h (0 Bft) 93,62 %
22.08.2020 04:48 20,4 C 18,9 C 18,9 C 81 % 1012,9 hPa 0,0 l/m 0 min 0 min 0 W/m 0,0 km/h (0 Bft) 95,65 %
22.08.2020 04:50 20,4 C 18,9 C 18,9 C 81 % 1012,9 hPa 0,0 l/m 0 min 0 min 0 W/m 0,0 km/h (0 Bft) 95,74 %
22.08.2020 04:52 20,3 C 18,9 C 18,9 C 81 % 1013,0 hPa 0,0 l/m 0 min 0 min 0 W/m 0,0 km/h (0 Bft) 95,83 %
22.08.2020 04:54 20,3 C 18,9 C 18,9 C 81 % 1013,0 hPa 0,0 l/m 0 min 0 min 0 W/m 0,0 km/h (0 Bft) 91,49 %
22.08.2020 04:56 20,3 C 18,9 C 18,9 C 81 % 1013,1 hPa 0,0 l/m 0 min 0 min 0 W/m 0,0 km/h (0 Bft) 95,74 %
22.08.2020 04:58 20,3 C 18,9 C 18,9 C 81 % 1013,1 hPa 0,0 l/m 0 min 0 min 0 W/m 0,0 km/h (0 Bft) 91,49 %
22.08.2020 05:00 20,3 C 18,9 C 18,9 C 81 % 1013,1 hPa 0,0 l/m 0 min 0 min 0 W/m 0,0 km/h (0 Bft) 93,62 %
22.08.2020 05:02 20,3 C 18,9 C 18,9 C 81 % 1013,1 hPa 0,0 l/m 0 min 0 min 0 W/m 0,0 km/h (0 Bft) 95,24 %
22.08.2020 05:04 20,2 C 18,9 C 18,9 C 81 % 1013,2 hPa 0,0 l/m 0 min 0 min 0 W/m 0,0 km/h (0 Bft) 95,74 %
22.08.2020 05:06 20,2 C 18,9 C 18,9 C 81 % 1013,2 hPa 0,0 l/m 0 min 0 min 0 W/m 0,0 km/h (0 Bft) 95,74 %
22.08.2020 05:08 20,2 C 18,9 C 18,9 C 81 % 1013,3 hPa 0,0 l/m 0 min 0 min 0 W/m 0,0 km/h (0 Bft) 95,74 %
22.08.2020 05:10 20,2 C 18,9 C 18,9 C 81 % 1013,3 hPa 0,0 l/m 0 min 0 min 0 W/m 3,2 km/h (1 Bft) 95,74 %
22.08.2020 05:12 20,2 C 18,9 C 18,9 C 82 % 1013,3 hPa 0,0 l/m 0 min 0 min 0 W/m 0,0 km/h (0 Bft) 95,74 %
22.08.2020 05:14 20,1 C 18,9 C 18,3 C 82 % 1013,3 hPa 0,0 l/m 0 min 0 min 0 W/m 0,0 km/h (0 Bft) 93,48 %
22.08.2020 05:16 20,1 C 18,9 C 18,3 C 82 % 1013,3 hPa 0,0 l/m 0 min 0 min 0 W/m 0,0 km/h (0 Bft) 95,74 %
22.08.2020 05:18 20,1 C 18,9 C 18,3 C 82 % 1013,3 hPa 0,0 l/m 0 min 0 min 0 W/m 0,0 km/h (0 Bft) 96,43 %
22.08.2020 05:20 20,1 C 18,3 C 18,3 C 82 % 1013,3 hPa 0,0 l/m 0 min 0 min 0 W/m 0,0 km/h (0 Bft) 97,37 %
22.08.2020 05:22 20,1 C 18,3 C 18,3 C 82 % 1013,3 hPa 0,0 l/m 0 min 0 min 0 W/m 0,0 km/h (0 Bft) 97,87 %
22.08.2020 05:24 20,0 C 18,3 C 18,3 C 82 % 1013,3 hPa 0,0 l/m 0 min 0 min 0 W/m 0,0 km/h (0 Bft) 100,00 %
22.08.2020 05:26 20,0 C 18,3 C 18,3 C 82 % 1013,3 hPa 0,0 l/m 0 min 0 min 0 W/m 0,0 km/h (0 Bft) 100,00 %
22.08.2020 05:28 20,0 C 18,3 C 18,3 C 83 % 1013,4 hPa 0,0 l/m 0 min 0 min 0 W/m 0,0 km/h (0 Bft) 100,00 %
22.08.2020 05:30 19,9 C 18,3 C 18,3 C 82 % 1013,4 hPa 0,0 l/m 0 min 0 min 0 W/m 0,0 km/h (0 Bft) 97,87 %
22.08.2020 05:32 19,9 C 18,3 C 18,3 C 82 % 1013,5 hPa 0,0 l/m 0 min 0 min 0 W/m 0,0 km/h (0 Bft) 100,00 %
22.08.2020 05:34 19,9 C 18,3 C 18,3 C 83 % 1013,5 hPa 0,0 l/m 0 min 0 min 0 W/m 0,0 km/h (0 Bft) 98,18 %
22.08.2020 05:36 19,9 C 18,3 C 18,3 C 83 % 1013,5 hPa 0,0 l/m 0 min 0 min 0 W/m 0,0 km/h (0 Bft) 97,37 %
22.08.2020 05:38 19,8 C 18,3 C 18,3 C 83 % 1013,5 hPa 0,0 l/m 0 min 0 min 0 W/m 0,0 km/h (0 Bft) 100,00 %
22.08.2020 05:40 19,8 C 18,3 C 18,3 C 83 % 1013,5 hPa 0,0 l/m 0 min 0 min 0 W/m 0,0 km/h (0 Bft) 100,00 %
22.08.2020 05:42 19,8 C 18,3 C 17,8 C 83 % 1013,5 hPa 0,0 l/m 0 min 0 min 0 W/m 0,0 km/h (0 Bft) 100,00 %
22.08.2020 05:44 19,8 C 18,3 C 18,3 C 83 % 1013,6 hPa 0,0 l/m 0 min 0 min 0 W/m 0,0 km/h (0 Bft) 100,00 %
22.08.2020 05:46 19,8 C 18,3 C 18,3 C 83 % 1013,6 hPa 0,0 l/m 0 min 0 min 0 W/m 0,0 km/h (0 Bft) 100,00 %
22.08.2020 05:48 19,7 C 18,3 C 18,3 C 84 % 1013,5 hPa 0,0 l/m 0 min 0 min 0 W/m 0,0 km/h (0 Bft) 100,00 %
22.08.2020 05:50 19,7 C 18,3 C 17,8 C 84 % 1013,6 hPa 0,0 l/m 0 min 0 min 0 W/m 0,0 km/h (0 Bft) 100,00 %
22.08.2020 05:52 19,7 C 17,8 C 18,3 C 84 % 1013,6 hPa 0,0 l/m 0 min 0 min 0 W/m 0,0 km/h (0 Bft) 97,30 %
22.08.2020 05:54 19,6 C 17,8 C 17,8 C 84 % 1013,6 hPa 0,0 l/m 0 min 0 min 0 W/m 0,0 km/h (0 Bft) 100,00 %
22.08.2020 05:56 19,6 C 17,8 C 17,8 C 84 % 1013,6 hPa 0,0 l/m 0 min 0 min 0 W/m 0,0 km/h (0 Bft) 100,00 %
22.08.2020 05:58 19,6 C 17,8 C 17,8 C 84 % 1013,6 hPa 0,0 l/m 0 min 0 min 0 W/m 0,0 km/h (0 Bft) 100,00 %
22.08.2020 06:00 19,6 C 17,8 C 17,8 C 84 % 1013,6 hPa 0,0 l/m 0 min 0 min 0 W/m 0,0 km/h (0 Bft) 100,00 %
22.08.2020 06:02 19,6 C 17,8 C 17,8 C 84 % 1013,6 hPa 0,0 l/m 0 min 0 min 0 W/m 0,0 km/h (0 Bft) 100,00 %
22.08.2020 06:04 19,5 C 17,8 C 17,8 C 84 % 1013,6 hPa 0,0 l/m 0 min 0 min 0 W/m 0,0 km/h (0 Bft) 100,00 %
22.08.2020 06:10 19,4 C 17,8 C 17,8 C 84 % 1013,7 hPa 0,0 l/m 0 min 0 min 0 W/m 0,0 km/h (0 Bft) 100,00 %
22.08.2020 06:12 19,4 C 17,8 C 17,8 C 84 % 1013,7 hPa 0,0 l/m 0 min 0 min 0 W/m 0,0 km/h (0 Bft) 100,00 %
22.08.2020 06:14 19,4 C 17,8 C 17,8 C 84 % 1013,8 hPa 0,0 l/m 0 min 0 min 0 W/m 0,0 km/h (0 Bft) 100,00 %
22.08.2020 06:16 19,3 C 17,8 C 17,8 C 85 % 1013,9 hPa 0,0 l/m 0 min 0 min 0 W/m 0,0 km/h (0 Bft) 100,00 %
22.08.2020 06:18 19,3 C 17,8 C 17,8 C 85 % 1013,9 hPa 0,0 l/m 0 min 0 min 0 W/m 0,0 km/h (0 Bft) 100,00 %
22.08.2020 06:20 19,3 C 17,8 C 17,8 C 85 % 1013,9 hPa 0,0 l/m 0 min 0 min 0 W/m 0,0 km/h (0 Bft) 100,00 %
22.08.2020 06:22 19,3 C 17,8 C 17,8 C 85 % 1014,0 hPa 0,0 l/m 0 min 0 min 0 W/m 0,0 km/h (0 Bft) 97,87 %
22.08.2020 06:24 19,3 C 17,8 C 17,8 C 85 % 1013,9 hPa 0,0 l/m 0 min 0 min 0 W/m 0,0 km/h (0 Bft) 98,18 %
22.08.2020 06:26 19,3 C 17,8 C 17,8 C 85 % 1014,0 hPa 0,0 l/m 0 min 0 min 0 W/m 0,0 km/h (0 Bft) 97,37 %
22.08.2020 06:28 19,2 C 17,8 C 17,8 C 85 % 1014,1 hPa 0,0 l/m 0 min 0 min 0 W/m 0,0 km/h (0 Bft) 97,87 %
22.08.2020 06:30 19,2 C 17,8 C 17,8 C 85 % 1014,0 hPa 0,0 l/m 0 min 0 min 0 W/m 0,0 km/h (0 Bft) 100,00 %
22.08.2020 06:32 19,2 C 17,8 C 17,8 C 85 % 1014,1 hPa 0,0 l/m 0 min 0 min 0 W/m 0,0 km/h (0 Bft) 100,00 %
22.08.2020 06:34 19,2 C 17,8 C 17,8 C 85 % 1014,1 hPa 0,0 l/m 0 min 0 min 0 W/m 0,0 km/h (0 Bft) 100,00 %
22.08.2020 06:36 19,1 C 17,8 C 17,8 C 85 % 1014,1 hPa 0,0 l/m 0 min 0 min 0 W/m 0,0 km/h (0 Bft) 100,00 %
22.08.2020 06:38 19,1 C 17,8 C 17,8 C 85 % 1014,2 hPa 0,0 l/m 0 min 0 min 0 W/m 0,0 km/h (0 Bft) 100,00 %
22.08.2020 06:40 19,1 C 17,8 C 17,8 C 85 % 1014,1 hPa 0,0 l/m 0 min 0 min 0 W/m 3,2 km/h (1 Bft) 97,87 %
22.08.2020 06:42 19,1 C 17,8 C 17,8 C 85 % 1014,2 hPa 0,0 l/m 0 min 0 min 0 W/m 9,7 km/h (2 Bft) 100,00 %
22.08.2020 06:44 19,1 C 17,8 C 17,8 C 85 % 1014,2 hPa 0,0 l/m 0 min 0 min 0 W/m 0,0 km/h (0 Bft) 97,83 %
22.08.2020 06:46 19,1 C 17,8 C 17,8 C 85 % 1014,2 hPa 0,0 l/m 0 min 0 min 0 W/m 0,0 km/h (0 Bft) 97,92 %
22.08.2020 06:48 19,0 C 17,8 C 17,8 C 85 % 1014,1 hPa 0,0 l/m 0 min 0 min 3 W/m 0,0 km/h (0 Bft) 100,00 %
22.08.2020 06:50 19,0 C 17,8 C 17,8 C 86 % 1014,1 hPa 0,0 l/m 0 min 0 min 5 W/m 0,0 km/h (0 Bft) 100,00 %
22.08.2020 06:52 19,0 C 17,8 C 17,8 C 86 % 1014,2 hPa 0,0 l/m 0 min 0 min 6 W/m 0,0 km/h (0 Bft) 100,00 %
22.08.2020 06:54 18,9 C 17,8 C 17,8 C 86 % 1014,3 hPa 0,0 l/m 0 min 0 min 7 W/m 0,0 km/h (0 Bft) 100,00 %
22.08.2020 06:56 18,9 C 17,8 C 17,8 C 86 % 1014,3 hPa 0,0 l/m 0 min 0 min 9 W/m 0,0 km/h (0 Bft) 100,00 %
22.08.2020 06:58 18,9 C 17,8 C 17,8 C 86 % 1014,3 hPa 0,0 l/m 0 min 0 min 7 W/m 0,0 km/h (0 Bft) 100,00 %
22.08.2020 07:00 18,9 C 17,8 C 17,8 C 86 % 1014,3 hPa 0,0 l/m 0 min 0 min 8 W/m 0,0 km/h (0 Bft) 97,87 %
22.08.2020 07:02 18,9 C 17,8 C 17,8 C 86 % 1014,3 hPa 0,0 l/m 0 min 0 min 11 W/m 0,0 km/h (0 Bft) 95,74 %
22.08.2020 07:04 18,9 C 17,8 C 17,8 C 86 % 1014,2 hPa 0,0 l/m 0 min 0 min 13 W/m 0,0 km/h (0 Bft) 100,00 %
22.08.2020 07:06 18,9 C 17,8 C 17,8 C 86 % 1014,2 hPa 0,0 l/m 0 min 0 min 14 W/m 0,0 km/h (0 Bft) 100,00 %
22.08.2020 07:08 18,9 C 17,8 C 17,8 C 86 % 1014,2 hPa 0,0 l/m 0 min 0 min 14 W/m 0,0 km/h (0 Bft) 100,00 %
22.08.2020 07:10 18,9 C 17,8 C 17,8 C 86 % 1014,2 hPa 0,0 l/m 0 min 0 min 14 W/m 0,0 km/h (0 Bft) 93,48 %
22.08.2020 07:12 18,9 C 17,8 C 17,8 C 86 % 1014,2 hPa 0,0 l/m 0 min 0 min 15 W/m 0,0 km/h (0 Bft) 93,18 %
22.08.2020 07:14 18,9 C 17,8 C 17,8 C 86 % 1014,2 hPa 0,0 l/m 0 min 0 min 17 W/m 0,0 km/h (0 Bft) 97,87 %
22.08.2020 07:16 18,9 C 18,3 C 17,8 C 86 % 1014,3 hPa 0,0 l/m 0 min 0 min 20 W/m 0,0 km/h (0 Bft) 98,00 %
22.08.2020 07:18 18,9 C 18,3 C 17,8 C 86 % 1014,3 hPa 0,0 l/m 0 min 0 min 22 W/m 0,0 km/h (0 Bft) 95,74 %
22.08.2020 07:20 18,9 C 18,3 C 17,8 C 86 % 1014,3 hPa 0,0 l/m 0 min 0 min 23 W/m 0,0 km/h (0 Bft) 95,74 %
22.08.2020 07:22 18,9 C 18,3 C 17,8 C 86 % 1014,4 hPa 0,0 l/m 0 min 0 min 23 W/m 0,0 km/h (0 Bft) 93,48 %
22.08.2020 07:24 18,9 C 18,3 C 17,8 C 86 % 1014,4 hPa 0,0 l/m 0 min 0 min 23 W/m 0,0 km/h (0 Bft) 91,49 %
22.08.2020 07:26 18,9 C 18,3 C 18,3 C 86 % 1014,5 hPa 0,0 l/m 0 min 0 min 27 W/m 0,0 km/h (0 Bft) 95,45 %
22.08.2020 07:28 18,9 C 18,3 C 18,3 C 85 % 1014,5 hPa 0,0 l/m 0 min 0 min 32 W/m 0,0 km/h (0 Bft) 92,00 %
22.08.2020 07:30 18,9 C 18,3 C 18,3 C 85 % 1014,5 hPa 0,0 l/m 0 min 0 min 30 W/m 0,0 km/h (0 Bft) 91,49 %
22.08.2020 07:32 18,9 C 18,3 C 18,3 C 85 % 1014,5 hPa 0,0 l/m 0 min 0 min 31 W/m 0,0 km/h (0 Bft) 93,62 %
22.08.2020 07:34 18,9 C 18,3 C 18,3 C 85 % 1014,6 hPa 0,0 l/m 0 min 0 min 33 W/m 0,0 km/h (0 Bft) 95,65 %
22.08.2020 07:36 18,9 C 18,3 C 18,3 C 85 % 1014,6 hPa 0,0 l/m 0 min 0 min 38 W/m 0,0 km/h (0 Bft) 93,62 %
22.08.2020 07:38 18,9 C 18,9 C 18,3 C 85 % 1014,6 hPa 0,0 l/m 0 min 0 min 42 W/m 0,0 km/h (0 Bft) 91,49 %
22.08.2020 07:40 18,9 C 18,9 C 18,3 C 85 % 1014,6 hPa 0,0 l/m 0 min 0 min 46 W/m 0,0 km/h (0 Bft) 93,62 %
22.08.2020 07:42 19,0 C 18,9 C 18,3 C 85 % 1014,7 hPa 0,0 l/m 0 min 0 min 49 W/m 0,0 km/h (0 Bft) 89,36 %
22.08.2020 07:44 19,0 C 18,9 C 18,3 C 85 % 1014,7 hPa 0,0 l/m 0 min 0 min 54 W/m 0,0 km/h (0 Bft) 93,02 %
22.08.2020 07:46 19,0 C 18,9 C 18,3 C 85 % 1014,7 hPa 0,0 l/m 0 min 0 min 58 W/m 0,0 km/h (0 Bft) 93,62 %
22.08.2020 07:48 19,1 C 18,9 C 18,3 C 85 % 1014,7 hPa 0,0 l/m 0 min 0 min 62 W/m 0,0 km/h (0 Bft) 91,49 %
22.08.2020 07:50 19,1 C 18,9 C 18,3 C 85 % 1014,7 hPa 0,0 l/m 0 min 0 min 64 W/m 0,0 km/h (0 Bft) 91,49 %
22.08.2020 07:52 19,1 C 18,9 C 18,3 C 85 % 1014,7 hPa 0,0 l/m 0 min 0 min 65 W/m 0,0 km/h (0 Bft) 94,00 %
22.08.2020 07:54 19,1 C 18,9 C 18,3 C 85 % 1014,7 hPa 0,0 l/m 0 min 0 min 68 W/m 0,0 km/h (0 Bft) 93,48 %
22.08.2020 07:56 19,1 C 18,9 C 18,3 C 85 % 1014,7 hPa 0,0 l/m 0 min 0 min 73 W/m 0,0 km/h (0 Bft) 93,62 %
22.08.2020 07:58 19,1 C 18,9 C 18,3 C 85 % 1014,7 hPa 0,0 l/m 0 min 0 min 79 W/m 0,0 km/h (0 Bft) 93,62 %
22.08.2020 08:00 19,1 C 18,9 C 18,3 C 85 % 1014,7 hPa 0,0 l/m 0 min 0 min 78 W/m 0,0 km/h (0 Bft) 93,62 %
22.08.2020 08:02 19,2 C 18,9 C 18,3 C 85 % 1014,7 hPa 0,0 l/m 0 min 0 min 76 W/m 0,0 km/h (0 Bft) 93,18 %
22.08.2020 08:04 19,2 C 19,4 C 18,9 C 84 % 1014,7 hPa 0,0 l/m 0 min 0 min 78 W/m 0,0 km/h (0 Bft) 91,49 %
22.08.2020 08:06 19,2 C 19,4 C 18,9 C 85 % 1014,7 hPa 0,0 l/m 0 min 0 min 82 W/m 0,0 km/h (0 Bft) 91,84 %
22.08.2020 08:08 19,2 C 19,4 C 18,9 C 84 % 1014,8 hPa 0,0 l/m 0 min 0 min 82 W/m 0,0 km/h (0 Bft) 95,74 %
22.08.2020 08:10 19,2 C 19,4 C 18,9 C 84 % 1014,8 hPa 0,0 l/m 0 min 0 min 84 W/m 3,2 km/h (1 Bft) 97,87 %
22.08.2020 08:12 19,2 C 19,4 C 18,9 C 83 % 1014,8 hPa 0,0 l/m 0 min 0 min 89 W/m 0,0 km/h (0 Bft) 97,87 %
22.08.2020 08:14 19,3 C 19,4 C 18,9 C 83 % 1014,8 hPa 0,0 l/m 0 min 0 min 93 W/m 0,0 km/h (0 Bft) 97,87 %
22.08.2020 08:16 19,3 C 19,4 C 18,9 C 83 % 1014,8 hPa 0,0 l/m 0 min 0 min 91 W/m 0,0 km/h (0 Bft) 100,00 %
22.08.2020 08:18 19,3 C 19,4 C 18,9 C 82 % 1014,8 hPa 0,0 l/m 0 min 0 min 93 W/m 0,0 km/h (0 Bft) 100,00 %
22.08.2020 08:20 19,3 C 19,4 C 18,9 C 81 % 1014,8 hPa 0,0 l/m 0 min 0 min 98 W/m 12,9 km/h (3 Bft) 95,65 %
22.08.2020 08:22 19,3 C 19,4 C 18,9 C 80 % 1014,9 hPa 0,0 l/m 0 min 0 min 104 W/m 19,3 km/h (3 Bft) 100,00 %
22.08.2020 08:24 19,4 C 19,4 C 18,9 C 80 % 1014,8 hPa 0,0 l/m 0 min 0 min 103 W/m 16,1 km/h (3 Bft) 100,00 %
22.08.2020 08:26 19,4 C 19,4 C 18,9 C 79 % 1014,8 hPa 0,0 l/m 0 min 0 min 104 W/m 16,1 km/h (3 Bft) 100,00 %
22.08.2020 08:28 19,5 C 19,4 C 18,9 C 79 % 1014,8 hPa 0,0 l/m 0 min 0 min 96 W/m 3,2 km/h (1 Bft) 100,00 %
22.08.2020 08:30 19,5 C 19,4 C 18,9 C 79 % 1014,9 hPa 0,0 l/m 0 min 0 min 90 W/m 16,1 km/h (3 Bft) 100,00 %
22.08.2020 08:32 19,6 C 19,4 C 18,9 C 78 % 1014,9 hPa 0,0 l/m 0 min 0 min 84 W/m 3,2 km/h (1 Bft) 97,87 %
22.08.2020 08:34 19,6 C 19,4 C 18,9 C 78 % 1014,9 hPa 0,0 l/m 0 min 0 min 88 W/m 0,0 km/h (0 Bft) 100,00 %
22.08.2020 08:36 19,6 C 19,4 C 18,9 C 77 % 1014,9 hPa 0,0 l/m 0 min 0 min 93 W/m 6,4 km/h (2 Bft) 100,00 %
22.08.2020 08:38 19,7 C 19,4 C 18,9 C 77 % 1014,9 hPa 0,0 l/m 0 min 0 min 101 W/m 3,2 km/h (1 Bft) 100,00 %
22.08.2020 08:40 19,7 C 19,4 C 18,9 C 77 % 1015,0 hPa 0,0 l/m 0 min 0 min 110 W/m 12,9 km/h (3 Bft) 100,00 %
22.08.2020 08:42 19,7 C 19,4 C 18,9 C 76 % 1015,0 hPa 0,0 l/m 0 min 0 min 113 W/m 3,2 km/h (1 Bft) 100,00 %
22.08.2020 08:44 19,7 C 20,0 C 18,9 C 76 % 1014,9 hPa 0,0 l/m 0 min 0 min 113 W/m 0,0 km/h (0 Bft) 100,00 %
22.08.2020 08:46 19,7 C 20,0 C 18,9 C 76 % 1014,9 hPa 0,0 l/m 0 min 0 min 117 W/m 0,0 km/h (0 Bft) 100,00 %
22.08.2020 08:48 19,8 C 20,0 C 18,9 C 76 % 1014,9 hPa 0,0 l/m 0 min 0 min 119 W/m 3,2 km/h (1 Bft) 100,00 %
22.08.2020 08:50 19,8 C 20,0 C 19,4 C 76 % 1014,9 hPa 0,0 l/m 0 min 0 min 133 W/m 3,2 km/h (1 Bft) 100,00 %
22.08.2020 08:52 19,8 C 20,6 C 19,4 C 76 % 1015,0 hPa 0,0 l/m 0 min 0 min 154 W/m 6,4 km/h (2 Bft) 100,00 %
22.08.2020 08:54 19,8 C 20,6 C 19,4 C 76 % 1015,0 hPa 0,0 l/m 0 min 0 min 139 W/m 3,2 km/h (1 Bft) 100,00 %
22.08.2020 08:56 19,8 C 21,1 C 19,4 C 76 % 1015,1 hPa 0,0 l/m 2 min 0 min 186 W/m 3,2 km/h (1 Bft) 100,00 %
22.08.2020 08:58 19,9 C 21,1 C 19,4 C 76 % 1015,1 hPa 0,0 l/m 2 min 0 min 193 W/m 12,9 km/h (3 Bft) 100,00 %
22.08.2020 09:00 19,9 C 21,1 C 19,4 C 76 % 1015,1 hPa 0,0 l/m 2 min 0 min 203 W/m 6,4 km/h (2 Bft) 100,00 %
22.08.2020 09:02 19,9 C 21,1 C 19,4 C 76 % 1015,1 hPa 0,0 l/m 0 min 0 min 139 W/m 0,0 km/h (0 Bft) 100,00 %
22.08.2020 09:04 20,0 C 20,6 C 18,9 C 75 % 1015,1 hPa 0,0 l/m 0 min 0 min 104 W/m 12,9 km/h (3 Bft) 97,96 %
22.08.2020 09:08 20,0 C 20,0 C 18,9 C 75 % 1015,1 hPa 0,0 l/m 0 min 0 min 83 W/m 9,7 km/h (2 Bft) 98,94 %
22.08.2020 09:10 20,0 C 20,0 C 18,9 C 75 % 1015,0 hPa 0,0 l/m 0 min 0 min 82 W/m 0,0 km/h (0 Bft) 100,00 %
22.08.2020 09:12 20,1 C 20,0 C 18,9 C 75 % 1015,0 hPa 0,0 l/m 0 min 0 min 105 W/m 0,0 km/h (0 Bft) 100,00 %
22.08.2020 09:14 20,1 C 20,0 C 18,9 C 75 % 1015,1 hPa 0,0 l/m 0 min 0 min 104 W/m 3,2 km/h (1 Bft) 100,00 %
22.08.2020 09:16 20,1 C 20,6 C 19,4 C 75 % 1015,0 hPa 0,0 l/m 0 min 0 min 167 W/m 6,4 km/h (2 Bft) 100,00 %
22.08.2020 09:18 20,1 C 21,1 C 20,6 C 75 % 1015,0 hPa 0,0 l/m 2 min 0 min 227 W/m 6,4 km/h (2 Bft) 100,00 %
22.08.2020 09:20 20,1 C 21,7 C 21,7 C 75 % 1015,0 hPa 0,0 l/m 2 min 0 min 224 W/m 3,2 km/h (1 Bft) 100,00 %
22.08.2020 09:22 20,1 C 22,2 C 22,2 C 75 % 1015,1 hPa 0,0 l/m 2 min 0 min 240 W/m 12,9 km/h (3 Bft) 100,00 %
22.08.2020 09:24 20,2 C 22,2 C 22,8 C 75 % 1015,2 hPa 0,0 l/m 0 min 0 min 198 W/m 3,2 km/h (1 Bft) 100,00 %
22.08.2020 09:26 20,2 C 22,2 C 22,8 C 75 % 1015,1 hPa 0,0 l/m 2 min 0 min 234 W/m 9,7 km/h (2 Bft) 100,00 %
22.08.2020 09:28 20,2 C 22,8 C 22,8 C 75 % 1015,1 hPa 0,0 l/m 2 min 0 min 313 W/m 6,4 km/h (2 Bft) 100,00 %
22.08.2020 09:30 20,3 C 23,3 C 24,4 C 76 % 1015,1 hPa 0,0 l/m 2 min 0 min 340 W/m 3,2 km/h (1 Bft) 100,00 %
22.08.2020 09:32 20,4 C 23,9 C 25,0 C 75 % 1015,1 hPa 0,0 l/m 2 min 0 min 348 W/m 16,1 km/h (3 Bft) 100,00 %
22.08.2020 09:34 20,5 C 23,9 C 26,1 C 75 % 1015,0 hPa 0,0 l/m 2 min 0 min 423 W/m 12,9 km/h (3 Bft) 100,00 %
22.08.2020 09:36 20,6 C 23,9 C 26,1 C 75 % 1015,1 hPa 0,0 l/m 2 min 0 min 422 W/m 9,7 km/h (2 Bft) 100,00 %
22.08.2020 09:38 20,7 C 23,9 C 26,1 C 75 % 1015,1 hPa 0,0 l/m 2 min 0 min 432 W/m 12,9 km/h (3 Bft) 100,00 %
22.08.2020 09:40 20,7 C 24,4 C 26,7 C 74 % 1015,1 hPa 0,0 l/m 2 min 0 min 437 W/m 16,1 km/h (3 Bft) 100,00 %
22.08.2020 09:42 20,8 C 25,0 C 27,2 C 74 % 1015,2 hPa 0,0 l/m 2 min 0 min 451 W/m 19,3 km/h (3 Bft) 97,87 %
22.08.2020 09:44 20,9 C 25,0 C 27,2 C 74 % 1015,2 hPa 0,0 l/m 2 min 0 min 460 W/m 6,4 km/h (2 Bft) 100,00 %
22.08.2020 09:46 21,1 C 25,0 C 26,7 C 74 % 1015,2 hPa 0,0 l/m 2 min 0 min 465 W/m 12,9 km/h (3 Bft) 97,96 %
22.08.2020 09:48 21,1 C 25,0 C 27,2 C 74 % 1015,1 hPa 0,0 l/m 2 min 0 min 470 W/m 3,2 km/h (1 Bft) 100,00 %
22.08.2020 09:50 21,2 C 25,0 C 27,2 C 74 % 1015,1 hPa 0,0 l/m 2 min 0 min 476 W/m 0,0 km/h (0 Bft) 98,11 %
22.08.2020 09:52 21,3 C 25,6 C 27,2 C 74 % 1015,2 hPa 0,0 l/m 2 min 0 min 485 W/m 9,7 km/h (2 Bft) 94,74 %
22.08.2020 09:54 21,4 C 25,0 C 26,1 C 73 % 1015,2 hPa 0,0 l/m 2 min 0 min 498 W/m 3,2 km/h (1 Bft) 97,96 %
22.08.2020 09:56 21,4 C 25,6 C 27,8 C 73 % 1015,1 hPa 0,0 l/m 2 min 0 min 499 W/m 6,4 km/h (2 Bft) 97,87 %
22.08.2020 09:58 21,6 C 25,6 C 27,8 C 74 % 1015,2 hPa 0,0 l/m 2 min 0 min 499 W/m 16,1 km/h (3 Bft) 97,87 %
22.08.2020 10:00 21,7 C 25,6 C 27,2 C 73 % 1015,1 hPa 0,0 l/m 2 min 0 min 525 W/m 3,2 km/h (1 Bft) 98,11 %
22.08.2020 10:02 21,7 C 25,6 C 27,8 C 73 % 1015,1 hPa 0,0 l/m 2 min 0 min 511 W/m 9,7 km/h (2 Bft) 97,37 %
22.08.2020 10:04 21,8 C 25,0 C 26,7 C 72 % 1015,2 hPa 0,0 l/m 2 min 0 min 543 W/m 3,2 km/h (1 Bft) 97,87 %
22.08.2020 10:06 21,7 C 23,9 C 25,6 C 72 % 1015,2 hPa 0,0 l/m 2 min 0 min 546 W/m 19,3 km/h (3 Bft) 97,78 %
22.08.2020 10:08 21,7 C 24,4 C 26,7 C 72 % 1015,1 hPa 0,0 l/m 2 min 0 min 546 W/m 3,2 km/h (1 Bft) 97,92 %
22.08.2020 10:10 21,7 C 24,4 C 26,7 C 72 % 1015,2 hPa 0,0 l/m 2 min 0 min 558 W/m 16,1 km/h (3 Bft) 97,87 %
22.08.2020 10:12 21,7 C 25,0 C 27,2 C 73 % 1015,2 hPa 0,0 l/m 2 min 0 min 581 W/m 3,2 km/h (1 Bft) 98,00 %
22.08.2020 10:14 21,8 C 25,6 C 27,2 C 73 % 1015,2 hPa 0,0 l/m 2 min 0 min 587 W/m 6,4 km/h (2 Bft) 95,74 %
22.08.2020 10:16 21,8 C 25,0 C 26,1 C 72 % 1015,3 hPa 0,0 l/m 2 min 0 min 587 W/m 3,2 km/h (1 Bft) 95,65 %
22.08.2020 10:18 21,8 C 25,0 C 26,7 C 72 % 1015,2 hPa 0,0 l/m 2 min 0 min 607 W/m 3,2 km/h (1 Bft) 95,74 %
22.08.2020 10:20 21,9 C 25,6 C 26,7 C 73 % 1015,3 hPa 0,0 l/m 2 min 0 min 355 W/m 12,9 km/h (3 Bft) 97,87 %
22.08.2020 10:22 21,9 C 26,7 C 27,8 C 72 % 1015,2 hPa 0,0 l/m 2 min 0 min 578 W/m 3,2 km/h (1 Bft) 95,74 %
22.08.2020 10:24 22,1 C 26,1 C 27,2 C 72 % 1015,3 hPa 0,0 l/m 2 min 0 min 637 W/m 0,0 km/h (0 Bft) 91,49 %
22.08.2020 10:26 22,1 C 25,6 C 26,7 C 73 % 1015,3 hPa 0,0 l/m 2 min 0 min 613 W/m 16,1 km/h (3 Bft) 93,62 %
22.08.2020 10:28 22,2 C 26,1 C 27,2 C 72 % 1015,3 hPa 0,0 l/m 2 min 0 min 613 W/m 16,1 km/h (3 Bft) 93,48 %
22.08.2020 10:30 22,3 C 27,2 C 27,2 C 72 % 1015,3 hPa 0,0 l/m 2 min 0 min 680 W/m 0,0 km/h (0 Bft) 95,74 %
22.08.2020 10:32 22,4 C 26,1 C 25,6 C 71 % 1015,4 hPa 0,0 l/m 2 min 0 min 686 W/m 0,0 km/h (0 Bft) 89,36 %
22.08.2020 10:34 22,4 C 26,7 C 25,0 C 71 % 1015,3 hPa 0,0 l/m 2 min 0 min 686 W/m 0,0 km/h (0 Bft) 93,62 %
22.08.2020 10:36 22,5 C 26,7 C 24,4 C 71 % 1015,3 hPa 0,0 l/m 2 min 0 min 642 W/m 0,0 km/h (0 Bft) 95,74 %
22.08.2020 10:38 22,6 C 26,7 C 24,4 C 71 % 1015,2 hPa 0,0 l/m 2 min 0 min 637 W/m 9,7 km/h (2 Bft) 95,74 %
22.08.2020 10:40 22,7 C 25,6 C 23,9 C 70 % 1015,3 hPa 0,0 l/m 2 min 0 min 637 W/m 16,1 km/h (3 Bft) 97,83 %
22.08.2020 10:42 22,7 C 25,0 C 23,3 C 70 % 1015,3 hPa 0,0 l/m 2 min 0 min 635 W/m 19,3 km/h (3 Bft) 93,62 %
22.08.2020 10:44 22,6 C 25,0 C 22,8 C 69 % 1015,3 hPa 0,0 l/m 2 min 0 min 638 W/m 19,3 km/h (3 Bft) 95,74 %
22.08.2020 10:46 22,6 C 25,6 C 22,8 C 69 % 1015,5 hPa 0,0 l/m 2 min 0 min 660 W/m 16,1 km/h (3 Bft) 93,62 %
22.08.2020 10:48 22,6 C 25,6 C 22,8 C 69 % 1015,3 hPa 0,0 l/m 2 min 0 min 663 W/m 12,9 km/h (3 Bft) 95,74 %
22.08.2020 10:50 22,5 C 25,6 C 22,8 C 69 % 1015,4 hPa 0,0 l/m 2 min 0 min 668 W/m 29,0 km/h (5 Bft) 95,74 %
22.08.2020 10:52 22,4 C 25,6 C 22,8 C 69 % 1015,4 hPa 0,0 l/m 2 min 0 min 701 W/m 35,4 km/h (5 Bft) 95,65 %
22.08.2020 10:54 22,4 C 25,6 C 22,2 C 68 % 1015,4 hPa 0,0 l/m 2 min 0 min 707 W/m 19,3 km/h (3 Bft) 93,62 %
22.08.2020 10:56 22,4 C 26,1 C 22,8 C 68 % 1015,4 hPa 0,0 l/m 2 min 0 min 681 W/m 19,3 km/h (3 Bft) 95,74 %
22.08.2020 10:58 22,6 C 27,2 C 22,8 C 69 % 1015,3 hPa 0,0 l/m 2 min 0 min 685 W/m 6,4 km/h (2 Bft) 93,62 %
22.08.2020 11:00 22,7 C 27,2 C 22,8 C 69 % 1015,4 hPa 0,0 l/m 2 min 0 min 706 W/m 25,7 km/h (4 Bft) 95,74 %
22.08.2020 11:02 22,8 C 27,2 C 22,8 C 68 % 1015,4 hPa 0,0 l/m 2 min 0 min 703 W/m 16,1 km/h (3 Bft) 95,74 %
22.08.2020 11:04 22,9 C 26,7 C 22,8 C 68 % 1015,3 hPa 0,0 l/m 2 min 0 min 707 W/m 16,1 km/h (3 Bft) 95,65 %
22.08.2020 11:06 22,8 C 25,6 C 22,8 C 67 % 1015,4 hPa 0,0 l/m 2 min 0 min 464 W/m 19,3 km/h (3 Bft) 95,74 %
22.08.2020 11:08 22,9 C 25,0 C 22,8 C 67 % 1015,3 hPa 0,0 l/m 2 min 0 min 578 W/m 22,5 km/h (4 Bft) 97,87 %
22.08.2020 11:10 22,8 C 24,4 C 22,2 C 66 % 1015,4 hPa 0,0 l/m 2 min 0 min 742 W/m 22,5 km/h (4 Bft) 95,74 %
22.08.2020 11:12 22,7 C 23,9 C 22,2 C 66 % 1015,3 hPa 0,0 l/m 2 min 0 min 669 W/m 25,7 km/h (4 Bft) 95,74 %
22.08.2020 11:14 22,7 C 25,0 C 22,2 C 67 % 1015,4 hPa 0,0 l/m 0 min 0 min 308 W/m 12,9 km/h (3 Bft) 97,87 %
22.08.2020 11:16 22,7 C 25,0 C 22,2 C 68 % 1015,3 hPa 0,0 l/m 2 min 0 min 763 W/m 22,5 km/h (4 Bft) 95,65 %
22.08.2020 11:18 22,6 C 25,0 C 22,2 C 68 % 1015,3 hPa 0,0 l/m 2 min 0 min 738 W/m 12,9 km/h (3 Bft) 97,87 %
22.08.2020 11:20 22,6 C 25,0 C 22,2 C 68 % 1015,4 hPa 0,0 l/m 2 min 0 min 728 W/m 12,9 km/h (3 Bft) 97,87 %
22.08.2020 11:22 22,6 C 26,1 C 22,2 C 69 % 1015,3 hPa 0,0 l/m 2 min 0 min 751 W/m 12,9 km/h (3 Bft) 97,87 %
22.08.2020 11:24 22,7 C 27,2 C 22,8 C 70 % 1015,3 hPa 0,0 l/m 2 min 0 min 754 W/m 6,4 km/h (2 Bft) 97,87 %
22.08.2020 11:26 22,8 C 27,2 C 22,8 C 68 % 1015,4 hPa 0,0 l/m 2 min 0 min 798 W/m 16,1 km/h (3 Bft) 95,65 %
22.08.2020 11:28 22,9 C 27,2 C 22,8 C 67 % 1015,4 hPa 0,0 l/m 2 min 0 min 688 W/m 16,1 km/h (3 Bft) 97,87 %
22.08.2020 11:30 23,1 C 27,2 C 23,3 C 66 % 1015,4 hPa 0,0 l/m 2 min 0 min 741 W/m 6,4 km/h (2 Bft) 95,74 %
22.08.2020 11:32 23,2 C 27,2 C 23,3 C 67 % 1015,4 hPa 0,0 l/m 2 min 0 min 775 W/m 0,0 km/h (0 Bft) 97,87 %
22.08.2020 11:34 23,2 C 25,6 C 23,3 C 66 % 1015,3 hPa 0,0 l/m 2 min 0 min 612 W/m 19,3 km/h (3 Bft) 97,87 %
22.08.2020 11:36 23,2 C 25,6 C 23,3 C 66 % 1015,4 hPa 0,0 l/m 0 min 0 min 221 W/m 0,0 km/h (0 Bft) 97,87 %
22.08.2020 11:38 23,3 C 27,2 C 23,3 C 68 % 1015,3 hPa 0,0 l/m 2 min 0 min 684 W/m 3,2 km/h (1 Bft) 97,83 %
22.08.2020 11:40 23,3 C 26,1 C 23,3 C 67 % 1015,4 hPa 0,0 l/m 2 min 0 min 529 W/m 9,7 km/h (2 Bft) 97,87 %
22.08.2020 11:42 23,3 C 26,1 C 22,8 C 65 % 1015,3 hPa 0,0 l/m 0 min 0 min 192 W/m 3,2 km/h (1 Bft) 97,87 %
22.08.2020 11:44 23,3 C 26,7 C 23,3 C 66 % 1015,3 hPa 0,0 l/m 0 min 0 min 192 W/m 0,0 km/h (0 Bft) 97,87 %
22.08.2020 11:46 23,3 C 27,2 C 23,3 C 66 % 1015,3 hPa 0,0 l/m 2 min 0 min 800 W/m 0,0 km/h (0 Bft) 97,87 %
22.08.2020 11:48 23,4 C 27,8 C 23,3 C 65 % 1015,3 hPa 0,0 l/m 2 min 0 min 831 W/m 16,1 km/h (3 Bft) 97,87 %
22.08.2020 11:50 23,4 C 26,7 C 23,3 C 65 % 1015,4 hPa 0,0 l/m 2 min 0 min 612 W/m 19,3 km/h (3 Bft) 100,00 %
22.08.2020 11:52 23,4 C 25,0 C 23,3 C 67 % 1015,4 hPa 0,0 l/m 0 min 0 min 223 W/m 6,4 km/h (2 Bft) 100,00 %
22.08.2020 11:54 23,4 C 25,0 C 23,3 C 65 % 1015,4 hPa 0,0 l/m 0 min 0 min 173 W/m 16,1 km/h (3 Bft) 100,00 %
22.08.2020 11:56 23,4 C 25,6 C 23,3 C 64 % 1015,4 hPa 0,0 l/m 2 min 0 min 433 W/m 19,3 km/h (3 Bft) 100,00 %
22.08.2020 11:58 23,5 C 27,2 C 23,3 C 64 % 1015,4 hPa 0,0 l/m 2 min 0 min 906 W/m 12,9 km/h (3 Bft) 100,00 %
22.08.2020 12:00 23,6 C 27,2 C 23,9 C 65 % 1015,4 hPa 0,0 l/m 2 min 0 min 918 W/m 25,7 km/h (4 Bft) 97,87 %
22.08.2020 12:02 23,7 C 26,1 C 23,9 C 64 % 1015,4 hPa 0,0 l/m 2 min 0 min 395 W/m 25,7 km/h (4 Bft) 100,00 %
22.08.2020 12:04 23,8 C 25,6 C 23,9 C 64 % 1015,4 hPa 0,0 l/m 0 min 0 min 225 W/m 16,1 km/h (3 Bft) 100,00 %
22.08.2020 12:08 23,8 C 24,4 C 23,3 C 64 % 1015,4 hPa 0,0 l/m 0 min 0 min 193 W/m 16,1 km/h (3 Bft) 100,00 %
22.08.2020 12:10 23,7 C 23,9 C 23,3 C 63 % 1015,4 hPa 0,0 l/m 0 min 0 min 184 W/m 16,1 km/h (3 Bft) 100,00 %
22.08.2020 12:12 23,7 C 23,3 C 22,8 C 62 % 1015,4 hPa 0,0 l/m 0 min 0 min 193 W/m 16,1 km/h (3 Bft) 100,00 %
22.08.2020 12:14 23,6 C 23,3 C 22,8 C 63 % 1015,3 hPa 0,0 l/m 0 min 0 min 259 W/m 12,9 km/h (3 Bft) 100,00 %
22.08.2020 12:16 23,5 C 22,8 C 22,8 C 63 % 1015,4 hPa 0,0 l/m 0 min 0 min 154 W/m 3,2 km/h (1 Bft) 100,00 %
22.08.2020 12:18 23,4 C 22,8 C 22,2 C 63 % 1015,4 hPa 0,0 l/m 0 min 0 min 147 W/m 22,5 km/h (4 Bft) 100,00 %
22.08.2020 12:20 23,3 C 22,8 C 22,2 C 62 % 1015,4 hPa 0,0 l/m 0 min 0 min 144 W/m 12,9 km/h (3 Bft) 100,00 %
22.08.2020 12:22 23,2 C 22,2 C 22,2 C 62 % 1015,3 hPa 0,0 l/m 0 min 0 min 178 W/m 29,0 km/h (5 Bft) 97,87 %
22.08.2020 12:24 23,1 C 23,3 C 22,2 C 62 % 1015,4 hPa 0,0 l/m 0 min 0 min 118 W/m 25,7 km/h (4 Bft) 100,00 %
22.08.2020 12:26 23,1 C 23,3 C 22,2 C 63 % 1015,3 hPa 0,0 l/m 0 min 0 min 121 W/m 16,1 km/h (3 Bft) 97,87 %
22.08.2020 12:28 23,0 C 23,3 C 22,2 C 64 % 1015,3 hPa 0,0 l/m 0 min 0 min 146 W/m 6,4 km/h (2 Bft) 97,87 %
22.08.2020 12:30 23,1 C 25,0 C 22,8 C 65 % 1015,3 hPa 0,0 l/m 0 min 0 min 190 W/m 6,4 km/h (2 Bft) 97,87 %
22.08.2020 12:32 23,1 C 25,6 C 22,8 C 64 % 1015,3 hPa 0,0 l/m 0 min 0 min 124 W/m 16,1 km/h (3 Bft) 95,65 %
22.08.2020 12:34 23,2 C 26,7 C 22,8 C 63 % 1015,4 hPa 0,0 l/m 2 min 0 min 857 W/m 22,5 km/h (4 Bft) 97,87 %
22.08.2020 12:36 23,3 C 28,3 C 23,3 C 65 % 1015,3 hPa 0,0 l/m 2 min 0 min 859 W/m 12,9 km/h (3 Bft) 97,87 %
22.08.2020 12:38 23,5 C 29,4 C 23,3 C 64 % 1015,3 hPa 0,0 l/m 2 min 0 min 851 W/m 19,3 km/h (3 Bft) 97,87 %
22.08.2020 12:40 23,7 C 28,3 C 23,3 C 63 % 1015,4 hPa 0,0 l/m 2 min 0 min 850 W/m 32,2 km/h (5 Bft) 95,74 %
22.08.2020 12:42 23,8 C 28,9 C 23,3 C 63 % 1015,3 hPa 0,0 l/m 2 min 0 min 853 W/m 22,5 km/h (4 Bft) 97,87 %
22.08.2020 12:44 23,9 C 29,4 C 23,3 C 62 % 1015,4 hPa 0,0 l/m 2 min 0 min 862 W/m 29,0 km/h (5 Bft) 97,83 %
22.08.2020 12:46 24,1 C 30,0 C 23,9 C 63 % 1015,3 hPa 0,0 l/m 2 min 0 min 870 W/m 0,0 km/h (0 Bft) 97,87 %
22.08.2020 12:48 24,3 C 29,4 C 23,9 C 61 % 1015,2 hPa 0,0 l/m 2 min 0 min 857 W/m 25,7 km/h (4 Bft) 97,87 %
22.08.2020 12:50 24,4 C 29,4 C 23,9 C 61 % 1015,2 hPa 0,0 l/m 2 min 0 min 859 W/m 38,6 km/h (5 Bft) 97,87 %
22.08.2020 12:52 24,6 C 30,0 C 23,9 C 60 % 1015,3 hPa 0,0 l/m 2 min 0 min 866 W/m 22,5 km/h (4 Bft) 95,74 %
22.08.2020 12:54 24,8 C 29,4 C 23,9 C 59 % 1015,3 hPa 0,0 l/m 2 min 0 min 877 W/m 25,7 km/h (4 Bft) 97,83 %
22.08.2020 12:56 24,9 C 30,0 C 23,9 C 60 % 1015,4 hPa 0,0 l/m 2 min 0 min 880 W/m 19,3 km/h (3 Bft) 97,87 %
22.08.2020 12:58 25,0 C 30,0 C 24,4 C 59 % 1015,3 hPa 0,0 l/m 2 min 0 min 879 W/m 22,5 km/h (4 Bft) 95,74 %
22.08.2020 13:00 25,2 C 29,4 C 24,4 C 59 % 1015,3 hPa 0,0 l/m 2 min 0 min 893 W/m 32,2 km/h (5 Bft) 97,87 %
22.08.2020 13:02 25,2 C 28,9 C 24,4 C 57 % 1015,3 hPa 0,0 l/m 2 min 0 min 930 W/m 38,6 km/h (5 Bft) 97,87 %
22.08.2020 13:04 25,3 C 29,4 C 24,4 C 57 % 1015,4 hPa 0,0 l/m 2 min 0 min 946 W/m 22,5 km/h (4 Bft) 97,87 %
22.08.2020 13:06 25,3 C 28,9 C 24,4 C 57 % 1015,3 hPa 0,0 l/m 2 min 0 min 907 W/m 22,5 km/h (4 Bft) 97,83 %
22.08.2020 13:08 25,4 C 29,4 C 24,4 C 58 % 1015,4 hPa 0,0 l/m 2 min 0 min 899 W/m 29,0 km/h (5 Bft) 95,74 %
22.08.2020 13:10 25,5 C 28,3 C 24,4 C 56 % 1015,4 hPa 0,0 l/m 2 min 0 min 930 W/m 32,2 km/h (5 Bft) 97,87 %
22.08.2020 13:12 25,4 C 26,7 C 24,4 C 56 % 1015,4 hPa 0,0 l/m 2 min 0 min 970 W/m 35,4 km/h (5 Bft) 100,00 %
22.08.2020 13:14 25,4 C 28,3 C 24,4 C 57 % 1015,3 hPa 0,0 l/m 2 min 0 min 950 W/m 35,4 km/h (5 Bft) 100,00 %
22.08.2020 13:16 25,4 C 26,1 C 23,9 C 56 % 1015,3 hPa 0,0 l/m 2 min 0 min 799 W/m 29,0 km/h (5 Bft) 97,87 %
22.08.2020 13:18 25,3 C 25,0 C 23,9 C 56 % 1015,4 hPa 0,0 l/m 0 min 0 min 193 W/m 22,5 km/h (4 Bft) 100,00 %
22.08.2020 13:20 25,2 C 26,7 C 23,9 C 56 % 1015,3 hPa 0,0 l/m 0 min 0 min 246 W/m 16,1 km/h (3 Bft) 100,00 %
22.08.2020 13:22 25,2 C 27,8 C 23,9 C 57 % 1015,3 hPa 0,0 l/m 2 min 0 min 909 W/m 25,7 km/h (4 Bft) 97,87 %
22.08.2020 13:24 25,2 C 27,8 C 24,4 C 57 % 1015,3 hPa 0,0 l/m 2 min 0 min 907 W/m 32,2 km/h (5 Bft) 97,87 %
22.08.2020 13:26 25,2 C 27,8 C 23,9 C 57 % 1015,2 hPa 0,0 l/m 2 min 0 min 909 W/m 25,7 km/h (4 Bft) 97,87 %
22.08.2020 13:28 25,2 C 28,3 C 24,4 C 57 % 1015,2 hPa 0,0 l/m 2 min 0 min 909 W/m 25,7 km/h (4 Bft) 100,00 %
22.08.2020 13:30 25,2 C 28,9 C 24,4 C 58 % 1015,2 hPa 0,0 l/m 2 min 0 min 900 W/m 32,2 km/h (5 Bft) 97,83 %
22.08.2020 13:32 25,2 C 26,1 C 23,9 C 57 % 1015,2 hPa 0,0 l/m 2 min 0 min 508 W/m 29,0 km/h (5 Bft) 95,74 %
22.08.2020 13:34 25,2 C 25,0 C 23,3 C 57 % 1015,2 hPa 0,0 l/m 0 min 0 min 163 W/m 35,4 km/h (5 Bft) 97,87 %
22.08.2020 13:36 25,1 C 25,0 C 23,3 C 57 % 1015,2 hPa 0,0 l/m 0 min 0 min 170 W/m 16,1 km/h (3 Bft) 97,87 %
22.08.2020 13:38 25,0 C 25,0 C 23,3 C 57 % 1015,3 hPa 0,0 l/m 0 min 0 min 211 W/m 41,8 km/h (6 Bft) 97,87 %
22.08.2020 13:40 24,9 C 27,2 C 23,9 C 58 % 1015,2 hPa 0,0 l/m 2 min 0 min 766 W/m 16,1 km/h (3 Bft) 97,87 %
22.08.2020 13:42 24,9 C 27,8 C 23,9 C 58 % 1015,3 hPa 0,0 l/m 2 min 0 min 969 W/m 29,0 km/h (5 Bft) 97,83 %
22.08.2020 13:44 24,9 C 28,3 C 24,4 C 58 % 1015,1 hPa 0,0 l/m 2 min 0 min 967 W/m 19,3 km/h (3 Bft) 97,87 %
22.08.2020 13:46 25,0 C 28,9 C 24,4 C 59 % 1015,2 hPa 0,0 l/m 2 min 0 min 966 W/m 29,0 km/h (5 Bft) 97,87 %
22.08.2020 13:48 25,1 C 28,9 C 24,4 C 58 % 1015,2 hPa 0,0 l/m 2 min 0 min 966 W/m 32,2 km/h (5 Bft) 97,87 %
22.08.2020 13:50 25,2 C 28,3 C 24,4 C 58 % 1015,2 hPa 0,0 l/m 2 min 0 min 994 W/m 19,3 km/h (3 Bft) 97,87 %
22.08.2020 13:52 25,2 C 27,8 C 24,4 C 58 % 1015,3 hPa 0,0 l/m 2 min 0 min 972 W/m 29,0 km/h (5 Bft) 95,65 %
22.08.2020 13:54 25,2 C 27,8 C 24,4 C 58 % 1015,2 hPa 0,0 l/m 2 min 0 min 972 W/m 22,5 km/h (4 Bft) 97,87 %
22.08.2020 13:56 25,3 C 27,8 C 24,4 C 58 % 1015,2 hPa 0,0 l/m 2 min 0 min 972 W/m 16,1 km/h (3 Bft) 97,87 %
22.08.2020 13:58 25,3 C 28,3 C 25,0 C 57 % 1015,3 hPa 0,0 l/m 2 min 0 min 1001 W/m 29,0 km/h (5 Bft) 95,74 %
22.08.2020 14:00 25,4 C 29,4 C 25,6 C 57 % 1015,2 hPa 0,0 l/m 2 min 0 min 1041 W/m 25,7 km/h (4 Bft) 95,74 %
22.08.2020 14:02 25,5 C 30,0 C 25,6 C 57 % 1015,3 hPa 0,0 l/m 2 min 0 min 985 W/m 19,3 km/h (3 Bft) 97,87 %
22.08.2020 14:04 25,6 C 30,6 C 25,6 C 57 % 1015,2 hPa 0,0 l/m 2 min 0 min 935 W/m 32,2 km/h (5 Bft) 97,87 %
22.08.2020 14:06 25,7 C 30,0 C 25,6 C 57 % 1015,2 hPa 0,0 l/m 2 min 0 min 910 W/m 35,4 km/h (5 Bft) 97,83 %
22.08.2020 14:08 25,7 C 28,9 C 26,1 C 56 % 1015,2 hPa 0,0 l/m 2 min 0 min 911 W/m 35,4 km/h (5 Bft) 95,74 %
22.08.2020 14:10 25,8 C 30,0 C 27,8 C 57 % 1015,1 hPa 0,0 l/m 2 min 0 min 923 W/m 25,7 km/h (4 Bft) 94,74 %
22.08.2020 14:12 25,9 C 30,6 C 27,2 C 57 % 1015,2 hPa 0,0 l/m 2 min 0 min 939 W/m 25,7 km/h (4 Bft) 97,83 %
22.08.2020 14:14 26,0 C 30,6 C 27,2 C 56 % 1015,1 hPa 0,0 l/m 2 min 0 min 951 W/m 29,0 km/h (5 Bft) 97,87 %
22.08.2020 14:16 26,1 C 30,6 C 26,7 C 54 % 1015,2 hPa 0,0 l/m 2 min 0 min 933 W/m 35,4 km/h (5 Bft) 95,74 %
22.08.2020 14:18 26,1 C 29,4 C 25,6 C 54 % 1015,3 hPa 0,0 l/m 2 min 0 min 951 W/m 35,4 km/h (5 Bft) 93,62 %
22.08.2020 14:20 26,2 C 28,9 C 25,6 C 54 % 1015,1 hPa 0,0 l/m 2 min 0 min 961 W/m 25,7 km/h (4 Bft) 95,74 %
22.08.2020 14:22 26,2 C 28,3 C 25,6 C 54 % 1015,1 hPa 0,0 l/m 2 min 0 min 962 W/m 25,7 km/h (4 Bft) 95,65 %
22.08.2020 14:24 26,1 C 27,8 C 25,6 C 53 % 1015,2 hPa 0,0 l/m 2 min 0 min 447 W/m 32,2 km/h (5 Bft) 95,74 %
22.08.2020 14:26 26,1 C 26,1 C 25,0 C 54 % 1015,2 hPa 0,0 l/m 0 min 0 min 277 W/m 19,3 km/h (3 Bft) 93,62 %
22.08.2020 14:28 25,9 C 26,1 C 24,4 C 55 % 1015,2 hPa 0,0 l/m 0 min 0 min 227 W/m 22,5 km/h (4 Bft) 97,87 %
22.08.2020 14:30 25,9 C 28,9 C 25,0 C 56 % 1015,3 hPa 0,0 l/m 2 min 0 min 569 W/m 19,3 km/h (3 Bft) 95,74 %
22.08.2020 14:32 25,9 C 28,3 C 25,0 C 56 % 1015,1 hPa 0,0 l/m 2 min 0 min 932 W/m 19,3 km/h (3 Bft) 97,87 %
22.08.2020 14:34 25,8 C 26,7 C 24,4 C 55 % 1015,1 hPa 0,0 l/m 2 min 0 min 382 W/m 22,5 km/h (4 Bft) 95,65 %
22.08.2020 14:36 25,8 C 28,3 C 25,0 C 55 % 1015,2 hPa 0,0 l/m 2 min 0 min 548 W/m 22,5 km/h (4 Bft) 97,87 %
22.08.2020 14:38 25,8 C 29,4 C 25,0 C 55 % 1015,2 hPa 0,0 l/m 2 min 0 min 973 W/m 25,7 km/h (4 Bft) 97,87 %
22.08.2020 14:40 25,8 C 27,2 C 25,0 C 55 % 1015,2 hPa 0,0 l/m 2 min 0 min 979 W/m 29,0 km/h (5 Bft) 93,62 %
22.08.2020 14:42 25,8 C 27,8 C 25,0 C 55 % 1015,3 hPa 0,0 l/m 0 min 0 min 288 W/m 25,7 km/h (4 Bft) 100,00 %
22.08.2020 14:44 25,8 C 29,4 C 25,0 C 56 % 1015,2 hPa 0,0 l/m 2 min 0 min 940 W/m 32,2 km/h (5 Bft) 95,74 %
22.08.2020 14:46 25,9 C 28,9 C 25,0 C 56 % 1015,2 hPa 0,0 l/m 2 min 0 min 764 W/m 19,3 km/h (3 Bft) 97,83 %
22.08.2020 14:48 25,9 C 27,8 C 25,0 C 55 % 1015,3 hPa 0,0 l/m 2 min 0 min 461 W/m 29,0 km/h (5 Bft) 97,87 %
22.08.2020 14:50 25,9 C 28,9 C 25,0 C 55 % 1015,2 hPa 0,0 l/m 2 min 0 min 721 W/m 19,3 km/h (3 Bft) 95,74 %
22.08.2020 14:52 25,9 C 28,3 C 25,0 C 54 % 1015,3 hPa 0,0 l/m 2 min 0 min 859 W/m 32,2 km/h (5 Bft) 97,87 %
22.08.2020 14:54 25,9 C 28,9 C 25,0 C 55 % 1015,3 hPa 0,0 l/m 2 min 0 min 857 W/m 19,3 km/h (3 Bft) 97,87 %
22.08.2020 14:56 25,9 C 28,9 C 25,0 C 55 % 1015,3 hPa 0,0 l/m 2 min 0 min 862 W/m 35,4 km/h (5 Bft) 97,83 %
22.08.2020 14:58 25,9 C 30,0 C 25,0 C 55 % 1015,2 hPa 0,0 l/m 2 min 0 min 860 W/m 29,0 km/h (5 Bft) 95,74 %
22.08.2020 15:00 26,0 C 30,0 C 25,6 C 55 % 1015,1 hPa 0,0 l/m 2 min 0 min 881 W/m 19,3 km/h (3 Bft) 97,87 %
22.08.2020 15:02 26,2 C 30,0 C 25,6 C 57 % 1015,0 hPa 0,0 l/m 2 min 0 min 841 W/m 19,3 km/h (3 Bft) 95,74 %
22.08.2020 15:04 26,2 C 27,2 C 25,0 C 53 % 1015,5 hPa 0,0 l/m 2 min 0 min 809 W/m 35,4 km/h (5 Bft) 93,62 %
22.08.2020 15:06 26,1 C 27,2 C 25,0 C 53 % 1015,2 hPa 0,0 l/m 2 min 0 min 809 W/m 29,0 km/h (5 Bft) 95,74 %
22.08.2020 15:08 26,1 C 27,2 C 25,0 C 53 % 1015,2 hPa 0,0 l/m 2 min 0 min 809 W/m 35,4 km/h (5 Bft) 95,65 %
22.08.2020 15:10 26,0 C 27,2 C 24,4 C 53 % 1015,1 hPa 0,0 l/m 0 min 0 min 338 W/m 25,7 km/h (4 Bft) 95,74 %
22.08.2020 15:12 25,9 C 26,1 C 24,4 C 53 % 1015,1 hPa 0,0 l/m 0 min 0 min 227 W/m 22,5 km/h (4 Bft) 97,87 %
22.08.2020 15:14 25,9 C 26,7 C 24,4 C 54 % 1015,1 hPa 0,0 l/m 0 min 0 min 226 W/m 9,7 km/h (2 Bft) 97,87 %
22.08.2020 15:16 25,9 C 27,8 C 25,0 C 55 % 1015,1 hPa 0,0 l/m 0 min 0 min 227 W/m 12,9 km/h (3 Bft) 97,87 %
22.08.2020 15:18 25,9 C 27,8 C 25,0 C 54 % 1015,2 hPa 0,0 l/m 0 min 0 min 263 W/m 25,7 km/h (4 Bft) 97,87 %
22.08.2020 15:20 25,8 C 28,3 C 25,0 C 55 % 1015,2 hPa 0,0 l/m 2 min 0 min 697 W/m 35,4 km/h (5 Bft) 97,83 %
22.08.2020 15:22 25,9 C 27,2 C 24,4 C 54 % 1015,1 hPa 0,0 l/m 2 min 0 min 614 W/m 25,7 km/h (4 Bft) 97,87 %
22.08.2020 15:24 25,8 C 27,8 C 24,4 C 54 % 1015,1 hPa 0,0 l/m 2 min 0 min 572 W/m 29,0 km/h (5 Bft) 97,87 %
22.08.2020 15:26 25,8 C 28,9 C 25,0 C 55 % 1015,1 hPa 0,0 l/m 2 min 0 min 844 W/m 22,5 km/h (4 Bft) 97,87 %
22.08.2020 15:28 25,9 C 29,4 C 25,0 C 54 % 1015,0 hPa 0,0 l/m 2 min 0 min 829 W/m 16,1 km/h (3 Bft) 97,87 %
22.08.2020 15:30 26,0 C 29,4 C 25,0 C 54 % 1015,0 hPa 0,0 l/m 2 min 0 min 857 W/m 25,7 km/h (4 Bft) 97,87 %
22.08.2020 15:32 26,1 C 30,0 C 25,6 C 54 % 1015,0 hPa 0,0 l/m 2 min 0 min 872 W/m 29,0 km/h (5 Bft) 95,65 %
22.08.2020 15:34 26,2 C 30,0 C 25,6 C 54 % 1015,3 hPa 0,0 l/m 2 min 0 min 873 W/m 19,3 km/h (3 Bft) 95,74 %
22.08.2020 15:36 26,3 C 28,3 C 25,6 C 52 % 1015,3 hPa 0,0 l/m 2 min 0 min 891 W/m 70,8 km/h (8 Bft) 97,87 %
22.08.2020 15:38 26,3 C 28,9 C 25,6 C 53 % 1015,1 hPa 0,0 l/m 2 min 0 min 865 W/m 32,2 km/h (5 Bft) 95,74 %
22.08.2020 15:40 26,4 C 30,6 C 25,6 C 55 % 1014,9 hPa 0,0 l/m 2 min 0 min 848 W/m 12,9 km/h (3 Bft) 97,87 %
22.08.2020 15:42 26,6 C 31,1 C 25,6 C 55 % 1014,9 hPa 0,0 l/m 2 min 0 min 857 W/m 12,9 km/h (3 Bft) 97,87 %
22.08.2020 15:44 26,7 C 31,1 C 25,6 C 53 % 1015,1 hPa 0,0 l/m 2 min 0 min 837 W/m 19,3 km/h (3 Bft) 100,00 %
22.08.2020 15:46 26,8 C 30,0 C 25,6 C 53 % 1015,0 hPa 0,0 l/m 2 min 0 min 807 W/m 19,3 km/h (3 Bft) 100,00 %
22.08.2020 15:48 26,8 C 29,4 C 25,6 C 52 % 1015,0 hPa 0,0 l/m 2 min 0 min 824 W/m 25,7 km/h (4 Bft) 100,00 %
22.08.2020 15:50 26,8 C 28,9 C 25,6 C 52 % 1015,2 hPa 0,0 l/m 2 min 0 min 828 W/m 41,8 km/h (6 Bft) 100,00 %
22.08.2020 15:52 26,8 C 28,9 C 25,6 C 52 % 1015,0 hPa 0,0 l/m 2 min 0 min 820 W/m 25,7 km/h (4 Bft) 100,00 %
22.08.2020 15:54 26,7 C 28,3 C 25,6 C 52 % 1015,2 hPa 0,0 l/m 2 min 0 min 812 W/m 22,5 km/h (4 Bft) 100,00 %
22.08.2020 15:56 26,7 C 28,9 C 25,6 C 53 % 1015,0 hPa 0,0 l/m 2 min 0 min 827 W/m 19,3 km/h (3 Bft) 100,00 %
22.08.2020 15:58 26,7 C 30,6 C 25,6 C 55 % 1014,9 hPa 0,0 l/m 2 min 0 min 804 W/m 12,9 km/h (3 Bft) 100,00 %
22.08.2020 16:00 26,8 C 30,6 C 25,6 C 53 % 1015,0 hPa 0,0 l/m 2 min 0 min 805 W/m 19,3 km/h (3 Bft) 97,87 %
22.08.2020 16:02 26,8 C 30,6 C 25,6 C 53 % 1014,9 hPa 0,0 l/m 2 min 0 min 788 W/m 16,1 km/h (3 Bft) 97,87 %
22.08.2020 16:04 26,8 C 28,9 C 25,6 C 52 % 1015,1 hPa 0,0 l/m 2 min 0 min 805 W/m 22,5 km/h (4 Bft) 100,00 %
22.08.2020 16:06 26,8 C 30,0 C 25,6 C 52 % 1015,0 hPa 0,0 l/m 2 min 0 min 828 W/m 32,2 km/h (5 Bft) 100,00 %
22.08.2020 16:08 26,8 C 28,9 C 25,6 C 51 % 1015,1 hPa 0,0 l/m 2 min 0 min 794 W/m 41,8 km/h (6 Bft) 100,00 %
22.08.2020 16:10 26,8 C 28,9 C 25,6 C 52 % 1014,9 hPa 0,0 l/m 2 min 0 min 745 W/m 22,5 km/h (4 Bft) 100,00 %
22.08.2020 16:12 26,8 C 27,8 C 25,6 C 52 % 1014,9 hPa 0,0 l/m 2 min 0 min 653 W/m 16,1 km/h (3 Bft) 100,00 %
22.08.2020 16:14 26,7 C 27,2 C 25,0 C 52 % 1014,8 hPa 0,0 l/m 2 min 0 min 475 W/m 22,5 km/h (4 Bft) 100,00 %
22.08.2020 16:16 26,7 C 27,2 C 25,0 C 53 % 1014,9 hPa 0,0 l/m 2 min 0 min 475 W/m 16,1 km/h (3 Bft) 97,83 %
22.08.2020 16:18 26,6 C 26,1 C 25,0 C 54 % 1014,9 hPa 0,0 l/m 0 min 0 min 285 W/m 16,1 km/h (3 Bft) 100,00 %
22.08.2020 16:20 26,5 C 26,1 C 24,4 C 53 % 1014,9 hPa 0,0 l/m 0 min 0 min 175 W/m 12,9 km/h (3 Bft) 100,00 %
22.08.2020 16:22 26,4 C 26,1 C 24,4 C 53 % 1015,0 hPa 0,0 l/m 0 min 0 min 184 W/m 19,3 km/h (3 Bft) 100,00 %
22.08.2020 16:24 26,3 C 26,7 C 25,0 C 52 % 1015,0 hPa 0,0 l/m 2 min 0 min 361 W/m 22,5 km/h (4 Bft) 100,00 %
22.08.2020 16:26 26,2 C 26,1 C 24,4 C 52 % 1014,9 hPa 0,0 l/m 2 min 0 min 354 W/m 35,4 km/h (5 Bft) 100,00 %
22.08.2020 16:28 26,1 C 25,6 C 24,4 C 53 % 1014,8 hPa 0,0 l/m 0 min 0 min 165 W/m 29,0 km/h (5 Bft) 100,00 %
22.08.2020 16:30 26,0 C 25,0 C 24,4 C 53 % 1014,8 hPa 0,0 l/m 0 min 0 min 216 W/m 16,1 km/h (3 Bft) 100,00 %
22.08.2020 16:32 25,9 C 25,6 C 24,4 C 53 % 1014,9 hPa 0,0 l/m 0 min 0 min 244 W/m 19,3 km/h (3 Bft) 97,92 %
22.08.2020 16:34 25,8 C 27,2 C 25,0 C 54 % 1014,8 hPa 0,0 l/m 0 min 0 min 279 W/m 12,9 km/h (3 Bft) 97,87 %
22.08.2020 16:36 25,8 C 27,2 C 25,0 C 53 % 1014,8 hPa 0,0 l/m 2 min 0 min 339 W/m 45,1 km/h (6 Bft) 100,00 %
22.08.2020 16:38 25,8 C 27,2 C 25,0 C 54 % 1014,7 hPa 0,0 l/m 2 min 0 min 478 W/m 25,7 km/h (4 Bft) 100,00 %
22.08.2020 16:40 25,8 C 26,1 C 24,4 C 53 % 1014,9 hPa 0,0 l/m 2 min 0 min 322 W/m 19,3 km/h (3 Bft) 100,00 %
22.08.2020 16:42 25,8 C 26,1 C 24,4 C 53 % 1014,8 hPa 0,0 l/m 2 min 0 min 283 W/m 19,3 km/h (3 Bft) 100,00 %
22.08.2020 16:44 25,7 C 25,6 C 24,4 C 52 % 1014,9 hPa 0,0 l/m 2 min 0 min 318 W/m 32,2 km/h (5 Bft) 100,00 %
22.08.2020 16:46 25,6 C 26,1 C 24,4 C 53 % 1014,8 hPa 0,0 l/m 2 min 0 min 342 W/m 22,5 km/h (4 Bft) 100,00 %
22.08.2020 16:48 25,6 C 25,6 C 24,4 C 53 % 1014,9 hPa 0,0 l/m 2 min 0 min 443 W/m 35,4 km/h (5 Bft) 100,00 %
22.08.2020 16:50 25,6 C 26,1 C 24,4 C 54 % 1014,8 hPa 0,0 l/m 2 min 0 min 305 W/m 12,9 km/h (3 Bft) 97,83 %
22.08.2020 16:52 25,6 C 26,1 C 24,4 C 54 % 1014,8 hPa 0,0 l/m 2 min 0 min 396 W/m 16,1 km/h (3 Bft) 97,87 %
22.08.2020 16:54 25,5 C 26,1 C 24,4 C 54 % 1014,8 hPa 0,0 l/m 2 min 0 min 332 W/m 22,5 km/h (4 Bft) 97,87 %
22.08.2020 16:56 25,5 C 26,1 C 24,4 C 53 % 1014,8 hPa 0,0 l/m 2 min 0 min 373 W/m 19,3 km/h (3 Bft) 97,87 %
22.08.2020 16:58 25,5 C 25,6 C 24,4 C 53 % 1014,9 hPa 0,0 l/m 0 min 0 min 201 W/m 19,3 km/h (3 Bft) 97,87 %
22.08.2020 17:00 25,4 C 25,0 C 24,4 C 53 % 1014,8 hPa 0,0 l/m 0 min 0 min 179 W/m 25,7 km/h (4 Bft) 95,74 %
22.08.2020 17:02 25,4 C 25,0 C 24,4 C 54 % 1014,9 hPa 0,0 l/m 0 min 0 min 172 W/m 32,2 km/h (5 Bft) 97,83 %
22.08.2020 17:04 25,3 C 24,4 C 23,9 C 53 % 1014,9 hPa 0,0 l/m 0 min 0 min 168 W/m 19,3 km/h (3 Bft) 95,74 %
22.08.2020 17:06 25,2 C 24,4 C 23,9 C 53 % 1014,8 hPa 0,0 l/m 0 min 0 min 149 W/m 12,9 km/h (3 Bft) 97,96 %
22.08.2020 17:08 25,2 C 23,9 C 23,9 C 53 % 1015,0 hPa 0,0 l/m 0 min 0 min 110 W/m 29,0 km/h (5 Bft) 97,87 %
22.08.2020 17:10 25,1 C 23,9 C 23,3 C 53 % 1015,0 hPa 0,0 l/m 0 min 0 min 73 W/m 16,1 km/h (3 Bft) 95,74 %
22.08.2020 17:12 24,9 C 23,3 C 23,3 C 54 % 1014,8 hPa 0,0 l/m 0 min 0 min 60 W/m 25,7 km/h (4 Bft) 95,74 %
22.08.2020 17:14 24,8 C 23,3 C 23,3 C 54 % 1015,0 hPa 0,0 l/m 0 min 0 min 51 W/m 19,3 km/h (3 Bft) 97,87 %
22.08.2020 17:16 24,7 C 23,3 C 23,3 C 54 % 1015,1 hPa 0,0 l/m 0 min 0 min 41 W/m 16,1 km/h (3 Bft) 97,83 %
22.08.2020 17:18 24,7 C 23,3 C 23,3 C 54 % 1015,2 hPa 0,0 l/m 0 min 0 min 30 W/m 29,0 km/h (5 Bft) 97,87 %
22.08.2020 17:20 24,6 C 23,3 C 22,8 C 55 % 1015,4 hPa 0,0 l/m 0 min 0 min 27 W/m 25,7 km/h (4 Bft) 97,87 %
22.08.2020 17:22 24,3 C 22,2 C 22,2 C 59 % 1015,6 hPa 0,0 l/m 0 min 0 min 40 W/m 25,7 km/h (4 Bft) 93,62 %
22.08.2020 17:24 23,9 C 21,1 C 21,7 C 63 % 1015,7 hPa 0,0 l/m 0 min 0 min 51 W/m 22,5 km/h (4 Bft) 95,74 %
22.08.2020 17:26 23,5 C 20,6 C 21,7 C 64 % 1015,8 hPa 0,0 l/m 0 min 0 min 57 W/m 16,1 km/h (3 Bft) 95,74 %
22.08.2020 17:28 23,2 C 20,6 C 21,1 C 65 % 1015,8 hPa 0,0 l/m 0 min 0 min 67 W/m 29,0 km/h (5 Bft) 91,30 %
22.08.2020 17:30 22,8 C 20,6 C 21,1 C 66 % 1015,8 hPa 0,0 l/m 0 min 0 min 78 W/m 25,7 km/h (4 Bft) 93,62 %
22.08.2020 17:32 22,6 C 20,6 C 20,6 C 67 % 1015,9 hPa 0,0 l/m 0 min 0 min 100 W/m 16,1 km/h (3 Bft) 93,62 %
22.08.2020 17:34 22,4 C 20,6 C 20,6 C 68 % 1015,8 hPa 0,0 l/m 0 min 0 min 118 W/m 12,9 km/h (3 Bft) 87,23 %
22.08.2020 17:36 22,2 C 20,6 C 21,1 C 68 % 1015,9 hPa 0,0 l/m 0 min 0 min 119 W/m 16,1 km/h (3 Bft) 93,62 %
22.08.2020 17:38 22,1 C 20,6 C 20,6 C 69 % 1015,9 hPa 0,0 l/m 0 min 0 min 114 W/m 12,9 km/h (3 Bft) 91,49 %
22.08.2020 17:40 21,9 C 20,6 C 20,6 C 69 % 1015,8 hPa 0,0 l/m 0 min 0 min 109 W/m 16,1 km/h (3 Bft) 89,13 %
22.08.2020 17:42 21,8 C 20,6 C 20,6 C 68 % 1015,8 hPa 0,0 l/m 0 min 0 min 103 W/m 9,7 km/h (2 Bft) 91,49 %
22.08.2020 17:44 21,6 C 20,6 C 20,6 C 68 % 1015,9 hPa 0,0 l/m 0 min 0 min 97 W/m 19,3 km/h (3 Bft) 95,74 %
22.08.2020 17:46 21,6 C 20,0 C 20,6 C 69 % 1016,0 hPa 0,0 l/m 0 min 0 min 83 W/m 0,0 km/h (0 Bft) 91,49 %
22.08.2020 17:48 21,4 C 20,0 C 20,6 C 69 % 1015,9 hPa 0,0 l/m 0 min 0 min 72 W/m 9,7 km/h (2 Bft) 93,62 %
22.08.2020 17:50 21,4 C 20,0 C 20,6 C 69 % 1015,9 hPa 0,0 l/m 0 min 0 min 49 W/m 6,4 km/h (2 Bft) 93,48 %
22.08.2020 17:52 21,3 C 20,0 C 20,0 C 69 % 1015,9 hPa 0,0 l/m 0 min 0 min 37 W/m 12,9 km/h (3 Bft) 93,62 %
22.08.2020 17:54 21,3 C 20,0 C 20,0 C 69 % 1015,9 hPa 0,0 l/m 0 min 0 min 44 W/m 3,2 km/h (1 Bft) 93,62 %
22.08.2020 17:56 21,2 C 20,0 C 20,0 C 69 % 1015,9 hPa 0,0 l/m 0 min 0 min 75 W/m 9,7 km/h (2 Bft) 93,62 %
22.08.2020 17:58 21,1 C 20,0 C 20,0 C 69 % 1015,9 hPa 0,0 l/m 0 min 0 min 97 W/m 6,4 km/h (2 Bft) 93,62 %
22.08.2020 18:00 21,1 C 20,0 C 20,6 C 69 % 1015,8 hPa 0,0 l/m 0 min 0 min 109 W/m 12,9 km/h (3 Bft) 95,74 %
22.08.2020 18:02 21,1 C 20,0 C 20,6 C 69 % 1015,7 hPa 0,0 l/m 0 min 0 min 107 W/m 6,4 km/h (2 Bft) 93,62 %
22.08.2020 18:04 21,1 C 20,0 C 20,6 C 70 % 1015,7 hPa 0,0 l/m 0 min 0 min 84 W/m 0,0 km/h (0 Bft) 91,30 %
22.08.2020 18:08 21,0 C 20,0 C 20,0 C 70 % 1015,8 hPa 0,0 l/m 0 min 0 min 71 W/m 3,2 km/h (1 Bft) 92,55 %
22.08.2020 18:10 20,9 C 20,0 C 20,0 C 71 % 1015,8 hPa 0,0 l/m 0 min 0 min 95 W/m 6,4 km/h (2 Bft) 95,74 %
22.08.2020 18:12 20,9 C 20,6 C 20,0 C 71 % 1015,7 hPa 0,0 l/m 0 min 0 min 125 W/m 0,0 km/h (0 Bft) 80,85 %
22.08.2020 18:14 20,9 C 20,6 C 20,0 C 71 % 1015,6 hPa 0,0 l/m 0 min 0 min 142 W/m 0,0 km/h (0 Bft) 83,72 %
22.08.2020 18:16 20,9 C 20,6 C 20,6 C 71 % 1015,6 hPa 0,0 l/m 0 min 0 min 156 W/m 0,0 km/h (0 Bft) 85,11 %
22.08.2020 18:18 21,0 C 21,1 C 20,6 C 72 % 1015,6 hPa 0,0 l/m 0 min 0 min 168 W/m 0,0 km/h (0 Bft) 82,98 %
22.08.2020 18:20 21,0 C 21,1 C 20,6 C 72 % 1015,6 hPa 0,0 l/m 0 min 0 min 169 W/m 0,0 km/h (0 Bft) 76,60 %
22.08.2020 18:22 21,1 C 21,1 C 20,6 C 72 % 1015,5 hPa 0,0 l/m 2 min 0 min 173 W/m 0,0 km/h (0 Bft) 87,23 %
22.08.2020 18:24 21,1 C 21,1 C 20,6 C 72 % 1015,5 hPa 0,0 l/m 2 min 0 min 173 W/m 3,2 km/h (1 Bft) 91,30 %
22.08.2020 18:26 21,1 C 21,1 C 20,6 C 71 % 1015,6 hPa 0,0 l/m 2 min 0 min 193 W/m 3,2 km/h (1 Bft) 97,87 %
22.08.2020 18:28 21,1 C 21,1 C 20,6 C 72 % 1015,5 hPa 0,0 l/m 2 min 0 min 204 W/m 0,0 km/h (0 Bft) 100,00 %
22.08.2020 18:30 21,1 C 21,7 C 20,6 C 71 % 1015,6 hPa 0,0 l/m 2 min 0 min 203 W/m 0,0 km/h (0 Bft) 97,87 %
22.08.2020 18:32 21,1 C 21,7 C 20,6 C 71 % 1015,5 hPa 0,0 l/m 2 min 0 min 207 W/m 0,0 km/h (0 Bft) 100,00 %
22.08.2020 18:34 21,2 C 21,7 C 20,6 C 71 % 1015,5 hPa 0,0 l/m 2 min 0 min 197 W/m 0,0 km/h (0 Bft) 100,00 %
22.08.2020 18:36 21,2 C 21,7 C 20,6 C 71 % 1015,6 hPa 0,0 l/m 2 min 0 min 172 W/m 3,2 km/h (1 Bft) 100,00 %
22.08.2020 18:38 21,3 C 21,1 C 20,6 C 70 % 1015,5 hPa 0,0 l/m 2 min 0 min 164 W/m 16,1 km/h (3 Bft) 97,83 %
22.08.2020 18:40 21,3 C 21,1 C 20,6 C 71 % 1015,5 hPa 0,0 l/m 2 min 0 min 164 W/m 6,4 km/h (2 Bft) 100,00 %
22.08.2020 18:42 21,3 C 21,1 C 20,6 C 70 % 1015,5 hPa 0,0 l/m 2 min 0 min 157 W/m 9,7 km/h (2 Bft) 100,00 %
22.08.2020 18:44 21,3 C 21,1 C 20,6 C 70 % 1015,5 hPa 0,0 l/m 0 min 0 min 142 W/m 9,7 km/h (2 Bft) 100,00 %
22.08.2020 18:46 21,3 C 21,1 C 20,6 C 70 % 1015,5 hPa 0,0 l/m 0 min 0 min 136 W/m 3,2 km/h (1 Bft) 100,00 %
22.08.2020 18:48 21,4 C 21,1 C 20,6 C 70 % 1015,5 hPa 0,0 l/m 0 min 0 min 137 W/m 12,9 km/h (3 Bft) 100,00 %
22.08.2020 18:50 21,4 C 21,1 C 20,6 C 70 % 1015,5 hPa 0,0 l/m 2 min 0 min 138 W/m 0,0 km/h (0 Bft) 97,87 %
22.08.2020 18:52 21,4 C 21,1 C 20,6 C 71 % 1015,5 hPa 0,0 l/m 2 min 0 min 138 W/m 0,0 km/h (0 Bft) 100,00 %
22.08.2020 18:54 21,4 C 21,1 C 20,6 C 71 % 1015,4 hPa 0,0 l/m 2 min 0 min 136 W/m 0,0 km/h (0 Bft) 100,00 %
22.08.2020 18:56 21,5 C 21,1 C 20,6 C 71 % 1015,4 hPa 0,0 l/m 2 min 0 min 138 W/m 6,4 km/h (2 Bft) 100,00 %
22.08.2020 18:58 21,5 C 21,7 C 20,6 C 71 % 1015,4 hPa 0,0 l/m 2 min 0 min 133 W/m 9,7 km/h (2 Bft) 100,00 %
22.08.2020 19:00 21,5 C 21,1 C 20,6 C 70 % 1015,4 hPa 0,0 l/m 2 min 0 min 127 W/m 3,2 km/h (1 Bft) 100,00 %
22.08.2020 19:02 21,6 C 21,1 C 20,6 C 71 % 1015,4 hPa 0,0 l/m 2 min 0 min 121 W/m 3,2 km/h (1 Bft) 100,00 %
22.08.2020 19:04 21,6 C 21,7 C 20,6 C 70 % 1015,4 hPa 0,0 l/m 0 min 0 min 111 W/m 6,4 km/h (2 Bft) 100,00 %
22.08.2020 19:06 21,6 C 21,1 C 20,6 C 71 % 1015,4 hPa 0,0 l/m 0 min 0 min 106 W/m 0,0 km/h (0 Bft) 100,00 %
22.08.2020 19:08 21,6 C 21,1 C 20,6 C 71 % 1015,4 hPa 0,0 l/m 0 min 0 min 100 W/m 0,0 km/h (0 Bft) 100,00 %
22.08.2020 19:10 21,7 C 21,1 C 20,6 C 71 % 1015,4 hPa 0,0 l/m 0 min 0 min 100 W/m 0,0 km/h (0 Bft) 100,00 %
22.08.2020 19:12 21,7 C 21,1 C 20,6 C 71 % 1015,4 hPa 0,0 l/m 0 min 0 min 99 W/m 0,0 km/h (0 Bft) 100,00 %
22.08.2020 19:14 21,7 C 21,1 C 20,6 C 71 % 1015,4 hPa 0,0 l/m 0 min 0 min 101 W/m 0,0 km/h (0 Bft) 95,74 %
22.08.2020 19:16 21,7 C 21,1 C 20,6 C 71 % 1015,4 hPa 0,0 l/m 2 min 0 min 104 W/m 6,4 km/h (2 Bft) 95,74 %
22.08.2020 19:18 21,7 C 21,7 C 20,6 C 71 % 1015,4 hPa 0,0 l/m 0 min 0 min 99 W/m 6,4 km/h (2 Bft) 93,62 %
22.08.2020 19:20 21,7 C 21,1 C 20,6 C 71 % 1015,4 hPa 0,0 l/m 0 min 0 min 94 W/m 12,9 km/h (3 Bft) 85,11 %
22.08.2020 19:22 21,7 C 21,1 C 20,6 C 70 % 1015,4 hPa 0,0 l/m 0 min 0 min 86 W/m 0,0 km/h (0 Bft) 91,30 %
22.08.2020 19:24 21,8 C 21,1 C 20,6 C 71 % 1015,4 hPa 0,0 l/m 0 min 0 min 78 W/m 0,0 km/h (0 Bft) 80,85 %
22.08.2020 19:26 21,8 C 21,1 C 20,6 C 71 % 1015,4 hPa 0,0 l/m 0 min 0 min 72 W/m 0,0 km/h (0 Bft) 93,62 %
22.08.2020 19:28 21,8 C 21,1 C 20,6 C 71 % 1015,4 hPa 0,0 l/m 0 min 0 min 69 W/m 0,0 km/h (0 Bft) 87,23 %
22.08.2020 19:30 21,8 C 21,1 C 20,6 C 70 % 1015,4 hPa 0,0 l/m 0 min 0 min 68 W/m 6,4 km/h (2 Bft) 89,36 %
22.08.2020 19:32 21,8 C 21,1 C 20,6 C 70 % 1015,4 hPa 0,0 l/m 0 min 0 min 67 W/m 6,4 km/h (2 Bft) 78,72 %
22.08.2020 19:34 21,8 C 21,1 C 20,6 C 70 % 1015,4 hPa 0,0 l/m 0 min 0 min 71 W/m 12,9 km/h (3 Bft) 80,85 %
22.08.2020 19:36 21,8 C 21,1 C 20,6 C 70 % 1015,4 hPa 0,0 l/m 0 min 0 min 72 W/m 3,2 km/h (1 Bft) 84,78 %
22.08.2020 19:38 21,7 C 21,1 C 20,6 C 70 % 1015,4 hPa 0,0 l/m 0 min 0 min 72 W/m 0,0 km/h (0 Bft) 100,00 %
22.08.2020 19:40 21,7 C 21,1 C 20,6 C 70 % 1015,5 hPa 0,0 l/m 0 min 0 min 69 W/m 6,4 km/h (2 Bft) 97,87 %
22.08.2020 19:42 21,7 C 21,1 C 20,6 C 70 % 1015,5 hPa 0,0 l/m 0 min 0 min 62 W/m 6,4 km/h (2 Bft) 100,00 %
22.08.2020 19:44 21,7 C 20,6 C 20,6 C 71 % 1015,5 hPa 0,0 l/m 0 min 0 min 54 W/m 3,2 km/h (1 Bft) 100,00 %
22.08.2020 19:46 21,7 C 20,6 C 20,6 C 71 % 1015,4 hPa 0,0 l/m 0 min 0 min 46 W/m 0,0 km/h (0 Bft) 100,00 %
22.08.2020 19:48 21,7 C 20,6 C 20,6 C 70 % 1015,5 hPa 0,0 l/m 0 min 0 min 41 W/m 0,0 km/h (0 Bft) 100,00 %
22.08.2020 19:50 21,7 C 20,6 C 20,6 C 71 % 1015,5 hPa 0,0 l/m 0 min 0 min 38 W/m 0,0 km/h (0 Bft) 100,00 %
22.08.2020 19:52 21,7 C 20,6 C 20,6 C 70 % 1015,4 hPa 0,0 l/m 0 min 0 min 37 W/m 0,0 km/h (0 Bft) 100,00 %
22.08.2020 19:54 21,6 C 20,6 C 20,6 C 70 % 1015,4 hPa 0,0 l/m 0 min 0 min 38 W/m 12,9 km/h (3 Bft) 100,00 %
22.08.2020 19:56 21,6 C 20,6 C 20,6 C 70 % 1015,4 hPa 0,0 l/m 0 min 0 min 39 W/m 0,0 km/h (0 Bft) 100,00 %
22.08.2020 19:58 21,6 C 20,6 C 20,0 C 71 % 1015,4 hPa 0,0 l/m 0 min 0 min 37 W/m 0,0 km/h (0 Bft) 100,00 %
22.08.2020 20:00 21,6 C 20,6 C 20,0 C 71 % 1015,5 hPa 0,0 l/m 0 min 0 min 35 W/m 0,0 km/h (0 Bft) 100,00 %
22.08.2020 20:02 21,6 C 20,6 C 20,0 C 71 % 1015,5 hPa 0,0 l/m 0 min 0 min 33 W/m 0,0 km/h (0 Bft) 100,00 %
22.08.2020 20:04 21,6 C 20,0 C 20,0 C 71 % 1015,5 hPa 0,0 l/m 0 min 0 min 29 W/m 0,0 km/h (0 Bft) 100,00 %
22.08.2020 20:06 21,6 C 20,0 C 20,0 C 71 % 1015,4 hPa 0,0 l/m 0 min 0 min 27 W/m 0,0 km/h (0 Bft) 97,87 %
22.08.2020 20:08 21,5 C 20,0 C 20,0 C 71 % 1015,3 hPa 0,0 l/m 0 min 0 min 25 W/m 0,0 km/h (0 Bft) 95,74 %
22.08.2020 20:10 21,5 C 20,0 C 20,0 C 71 % 1015,4 hPa 0,0 l/m 0 min 0 min 25 W/m 6,4 km/h (2 Bft) 95,65 %
22.08.2020 20:12 21,5 C 20,0 C 20,0 C 71 % 1015,4 hPa 0,0 l/m 0 min 0 min 25 W/m 0,0 km/h (0 Bft) 91,49 %
22.08.2020 20:14 21,4 C 20,0 C 20,0 C 71 % 1015,4 hPa 0,0 l/m 0 min 0 min 21 W/m 0,0 km/h (0 Bft) 89,36 %
22.08.2020 20:16 21,4 C 20,0 C 20,0 C 71 % 1015,4 hPa 0,0 l/m 0 min 0 min 19 W/m 0,0 km/h (0 Bft) 89,36 %
22.08.2020 20:18 21,4 C 20,0 C 20,0 C 71 % 1015,4 hPa 0,0 l/m 0 min 0 min 19 W/m 0,0 km/h (0 Bft) 89,36 %
22.08.2020 20:20 21,4 C 20,0 C 20,0 C 71 % 1015,4 hPa 0,0 l/m 0 min 0 min 17 W/m 0,0 km/h (0 Bft) 85,11 %
22.08.2020 20:22 21,4 C 20,0 C 20,0 C 71 % 1015,3 hPa 0,0 l/m 0 min 0 min 14 W/m 9,7 km/h (2 Bft) 91,30 %
22.08.2020 20:24 21,3 C 20,0 C 20,0 C 71 % 1015,4 hPa 0,0 l/m 0 min 0 min 12 W/m 0,0 km/h (0 Bft) 93,62 %
22.08.2020 20:26 21,3 C 20,0 C 20,0 C 70 % 1015,3 hPa 0,0 l/m 0 min 0 min 10 W/m 0,0 km/h (0 Bft) 92,00 %
22.08.2020 20:28 21,3 C 20,6 C 20,6 C 70 % 1015,3 hPa 0,0 l/m 0 min 0 min 9 W/m 3,2 km/h (1 Bft) 87,23 %
22.08.2020 20:30 21,3 C 20,6 C 20,6 C 69 % 1015,4 hPa 0,0 l/m 0 min 0 min 9 W/m 19,3 km/h (3 Bft) 91,49 %
22.08.2020 20:32 21,3 C 20,6 C 20,6 C 69 % 1015,4 hPa 0,0 l/m 0 min 0 min 7 W/m 0,0 km/h (0 Bft) 89,36 %
22.08.2020 20:34 21,3 C 20,6 C 20,6 C 70 % 1015,4 hPa 0,0 l/m 0 min 0 min 6 W/m 0,0 km/h (0 Bft) 89,13 %
22.08.2020 20:36 21,3 C 20,6 C 20,6 C 69 % 1015,5 hPa 0,0 l/m 0 min 0 min 5 W/m 0,0 km/h (0 Bft) 91,49 %
22.08.2020 20:38 21,3 C 20,6 C 20,0 C 70 % 1015,5 hPa 0,0 l/m 0 min 0 min 1 W/m 0,0 km/h (0 Bft) 85,11 %
22.08.2020 20:40 21,3 C 20,0 C 20,0 C 69 % 1015,6 hPa 0,0 l/m 0 min 0 min 0 W/m 0,0 km/h (0 Bft) 93,62 %
22.08.2020 20:42 21,3 C 20,0 C 20,0 C 70 % 1015,5 hPa 0,0 l/m 0 min 0 min 0 W/m 9,7 km/h (2 Bft) 91,49 %
22.08.2020 20:44 21,3 C 20,6 C 20,0 C 69 % 1015,5 hPa 0,0 l/m 0 min 0 min 0 W/m 3,2 km/h (1 Bft) 93,62 %
22.08.2020 20:46 21,3 C 20,6 C 20,0 C 69 % 1015,6 hPa 0,0 l/m 0 min 0 min 0 W/m 0,0 km/h (0 Bft) 91,30 %
22.08.2020 20:48 21,3 C 20,0 C 20,0 C 70 % 1015,7 hPa 0,0 l/m 0 min 0 min 0 W/m 0,0 km/h (0 Bft) 91,49 %
22.08.2020 20:50 21,3 C 20,0 C 20,0 C 70 % 1015,6 hPa 0,0 l/m 0 min 0 min 0 W/m 0,0 km/h (0 Bft) 93,62 %
22.08.2020 20:52 21,3 C 20,0 C 20,0 C 70 % 1015,7 hPa 0,0 l/m 0 min 0 min 0 W/m 0,0 km/h (0 Bft) 93,62 %
22.08.2020 20:54 21,3 C 20,6 C 20,0 C 69 % 1015,6 hPa 0,0 l/m 0 min 0 min 0 W/m 12,9 km/h (3 Bft) 93,62 %
22.08.2020 20:56 21,3 C 20,6 C 20,6 C 69 % 1015,6 hPa 0,0 l/m 0 min 0 min 0 W/m 0,0 km/h (0 Bft) 93,62 %
22.08.2020 20:58 21,3 C 20,6 C 20,6 C 70 % 1015,6 hPa 0,0 l/m 0 min 0 min 0 W/m 3,2 km/h (1 Bft) 93,48 %
22.08.2020 21:00 21,3 C 20,6 C 20,6 C 69 % 1015,7 hPa 0,0 l/m 0 min 0 min 0 W/m 12,9 km/h (3 Bft) 95,74 %
22.08.2020 21:02 21,3 C 20,6 C 20,0 C 69 % 1015,6 hPa 0,0 l/m 0 min 0 min 0 W/m 6,4 km/h (2 Bft) 93,62 %
22.08.2020 21:04 21,3 C 20,6 C 20,0 C 70 % 1015,6 hPa 0,0 l/m 0 min 0 min 0 W/m 0,0 km/h (0 Bft) 97,87 %
22.08.2020 21:06 21,3 C 20,6 C 20,0 C 69 % 1015,7 hPa 0,0 l/m 0 min 0 min 0 W/m 0,0 km/h (0 Bft) 97,87 %
22.08.2020 21:08 21,3 C 20,6 C 20,0 C 69 % 1015,7 hPa 0,0 l/m 0 min 0 min 0 W/m 12,9 km/h (3 Bft) 95,65 %
22.08.2020 21:10 21,3 C 20,6 C 20,0 C 69 % 1015,6 hPa 0,0 l/m 0 min 0 min 0 W/m 0,0 km/h (0 Bft) 95,74 %
22.08.2020 21:12 21,3 C 20,6 C 20,0 C 69 % 1015,6 hPa 0,0 l/m 0 min 0 min 0 W/m 3,2 km/h (1 Bft) 97,87 %
22.08.2020 21:14 21,3 C 20,0 C 20,0 C 70 % 1015,6 hPa 0,0 l/m 0 min 0 min 0 W/m 0,0 km/h (0 Bft) 97,87 %
22.08.2020 21:16 21,3 C 20,0 C 20,0 C 70 % 1015,6 hPa 0,0 l/m 0 min 0 min 0 W/m 3,2 km/h (1 Bft) 95,74 %
22.08.2020 21:18 21,3 C 20,0 C 20,0 C 70 % 1015,7 hPa 0,0 l/m 0 min 0 min 0 W/m 0,0 km/h (0 Bft) 93,62 %
22.08.2020 21:20 21,3 C 20,0 C 20,0 C 70 % 1015,7 hPa 0,0 l/m 0 min 0 min 0 W/m 0,0 km/h (0 Bft) 97,83 %
22.08.2020 21:22 21,3 C 20,0 C 20,0 C 70 % 1015,8 hPa 0,0 l/m 0 min 0 min 0 W/m 0,0 km/h (0 Bft) 100,00 %
22.08.2020 21:24 21,3 C 20,6 C 20,0 C 70 % 1015,8 hPa 0,0 l/m 0 min 0 min 0 W/m 0,0 km/h (0 Bft) 100,00 %
22.08.2020 21:26 21,3 C 20,6 C 20,0 C 70 % 1015,9 hPa 0,0 l/m 0 min 0 min 0 W/m 9,7 km/h (2 Bft) 100,00 %
22.08.2020 21:28 21,3 C 20,6 C 20,0 C 70 % 1015,9 hPa 0,0 l/m 0 min 0 min 0 W/m 3,2 km/h (1 Bft) 100,00 %
22.08.2020 21:30 21,3 C 20,0 C 20,0 C 70 % 1015,8 hPa 0,0 l/m 0 min 0 min 0 W/m 3,2 km/h (1 Bft) 100,00 %
22.08.2020 21:32 21,3 C 20,0 C 20,0 C 70 % 1015,9 hPa 0,0 l/m 0 min 0 min 0 W/m 9,7 km/h (2 Bft) 100,00 %
22.08.2020 21:34 21,3 C 20,0 C 20,0 C 70 % 1015,9 hPa 0,0 l/m 0 min 0 min 0 W/m 16,1 km/h (3 Bft) 100,00 %
22.08.2020 21:36 21,3 C 19,4 C 20,0 C 71 % 1015,9 hPa 0,0 l/m 0 min 0 min 0 W/m 29,0 km/h (5 Bft) 100,00 %
22.08.2020 21:38 21,3 C 19,4 C 20,0 C 71 % 1015,8 hPa 0,0 l/m 0 min 0 min 0 W/m 25,7 km/h (4 Bft) 100,00 %
22.08.2020 21:40 21,3 C 19,4 C 19,4 C 71 % 1015,9 hPa 0,0 l/m 0 min 0 min 0 W/m 25,7 km/h (4 Bft) 100,00 %
22.08.2020 21:42 21,2 C 19,4 C 19,4 C 72 % 1015,8 hPa 0,0 l/m 0 min 0 min 0 W/m 29,0 km/h (5 Bft) 100,00 %
22.08.2020 21:44 21,2 C 19,4 C 19,4 C 72 % 1015,8 hPa 0,0 l/m 0 min 0 min 0 W/m 9,7 km/h (2 Bft) 100,00 %
22.08.2020 21:46 21,1 C 19,4 C 19,4 C 72 % 1015,8 hPa 0,0 l/m 0 min 0 min 0 W/m 25,7 km/h (4 Bft) 97,87 %
22.08.2020 21:48 21,1 C 19,4 C 19,4 C 72 % 1015,8 hPa 0,0 l/m 0 min 0 min 0 W/m 16,1 km/h (3 Bft) 100,00 %
22.08.2020 21:50 21,1 C 19,4 C 19,4 C 73 % 1015,8 hPa 0,0 l/m 0 min 0 min 0 W/m 25,7 km/h (4 Bft) 100,00 %
22.08.2020 21:52 21,0 C 19,4 C 18,9 C 73 % 1015,8 hPa 0,0 l/m 0 min 0 min 0 W/m 19,3 km/h (3 Bft) 100,00 %
22.08.2020 21:54 20,9 C 18,9 C 18,9 C 73 % 1015,9 hPa 0,0 l/m 0 min 0 min 0 W/m 22,5 km/h (4 Bft) 100,00 %
22.08.2020 21:56 20,9 C 18,9 C 18,9 C 73 % 1015,8 hPa 0,0 l/m 0 min 0 min 0 W/m 12,9 km/h (3 Bft) 100,00 %
22.08.2020 21:58 20,8 C 18,9 C 18,9 C 73 % 1015,9 hPa 0,0 l/m 0 min 0 min 0 W/m 22,5 km/h (4 Bft) 100,00 %
22.08.2020 22:00 20,7 C 18,9 C 18,9 C 74 % 1015,8 hPa 0,0 l/m 0 min 0 min 0 W/m 6,4 km/h (2 Bft) 100,00 %
22.08.2020 22:02 20,7 C 18,9 C 18,9 C 74 % 1015,8 hPa 0,0 l/m 0 min 0 min 0 W/m 16,1 km/h (3 Bft) 100,00 %
22.08.2020 22:04 20,6 C 18,9 C 18,9 C 74 % 1015,8 hPa 0,0 l/m 0 min 0 min 0 W/m 19,3 km/h (3 Bft) 100,00 %
22.08.2020 22:06 20,5 C 18,9 C 18,9 C 75 % 1015,8 hPa 0,0 l/m 0 min 0 min 0 W/m 22,5 km/h (4 Bft) 97,83 %
22.08.2020 22:08 20,4 C 18,9 C 18,9 C 75 % 1015,8 hPa 0,0 l/m 0 min 0 min 0 W/m 19,3 km/h (3 Bft) 97,87 %
22.08.2020 22:10 20,4 C 18,9 C 18,3 C 75 % 1015,9 hPa 0,0 l/m 0 min 0 min 0 W/m 0,0 km/h (0 Bft) 100,00 %
22.08.2020 22:12 20,3 C 18,3 C 18,3 C 76 % 1015,9 hPa 0,0 l/m 0 min 0 min 0 W/m 16,1 km/h (3 Bft) 100,00 %
22.08.2020 22:14 20,2 C 18,3 C 18,3 C 76 % 1015,9 hPa 0,0 l/m 0 min 0 min 0 W/m 3,2 km/h (1 Bft) 97,87 %
22.08.2020 22:16 20,2 C 18,3 C 18,3 C 76 % 1015,9 hPa 0,0 l/m 0 min 0 min 0 W/m 3,2 km/h (1 Bft) 100,00 %
22.08.2020 22:18 20,1 C 18,3 C 18,3 C 76 % 1015,8 hPa 0,0 l/m 0 min 0 min 0 W/m 19,3 km/h (3 Bft) 100,00 %
22.08.2020 22:20 20,1 C 18,3 C 18,3 C 76 % 1015,9 hPa 0,0 l/m 0 min 0 min 0 W/m 35,4 km/h (5 Bft) 100,00 %
22.08.2020 22:22 19,9 C 18,3 C 18,3 C 76 % 1015,8 hPa 0,0 l/m 0 min 0 min 0 W/m 22,5 km/h (4 Bft) 100,00 %
22.08.2020 22:24 19,9 C 18,3 C 18,3 C 77 % 1015,9 hPa 0,0 l/m 0 min 0 min 0 W/m 16,1 km/h (3 Bft) 100,00 %
22.08.2020 22:26 19,8 C 18,3 C 18,3 C 77 % 1015,9 hPa 0,0 l/m 0 min 0 min 0 W/m 16,1 km/h (3 Bft) 97,87 %
22.08.2020 22:28 19,8 C 18,3 C 18,3 C 77 % 1015,8 hPa 0,0 l/m 0 min 0 min 0 W/m 19,3 km/h (3 Bft) 100,00 %
22.08.2020 22:30 19,7 C 18,3 C 18,3 C 77 % 1015,9 hPa 0,0 l/m 0 min 0 min 0 W/m 6,4 km/h (2 Bft) 100,00 %
22.08.2020 22:32 19,6 C 18,3 C 18,3 C 77 % 1015,9 hPa 0,0 l/m 0 min 0 min 0 W/m 3,2 km/h (1 Bft) 100,00 %
22.08.2020 22:34 19,6 C 18,3 C 18,3 C 77 % 1015,9 hPa 0,0 l/m 0 min 0 min 0 W/m 16,1 km/h (3 Bft) 100,00 %
22.08.2020 22:36 19,6 C 18,3 C 18,3 C 77 % 1015,9 hPa 0,0 l/m 0 min 0 min 0 W/m 3,2 km/h (1 Bft) 100,00 %
22.08.2020 22:38 19,5 C 18,3 C 18,3 C 77 % 1015,9 hPa 0,0 l/m 0 min 0 min 0 W/m 12,9 km/h (3 Bft) 100,00 %
22.08.2020 22:40 19,4 C 18,3 C 18,3 C 78 % 1015,9 hPa 0,0 l/m 0 min 0 min 0 W/m 3,2 km/h (1 Bft) 100,00 %
22.08.2020 22:42 19,4 C 18,3 C 18,3 C 78 % 1016,0 hPa 0,0 l/m 0 min 0 min 0 W/m 16,1 km/h (3 Bft) 97,83 %
22.08.2020 22:44 19,4 C 18,3 C 18,3 C 78 % 1015,9 hPa 0,0 l/m 0 min 0 min 0 W/m 3,2 km/h (1 Bft) 100,00 %
22.08.2020 22:46 19,3 C 18,3 C 18,3 C 78 % 1016,0 hPa 0,0 l/m 0 min 0 min 0 W/m 6,4 km/h (2 Bft) 100,00 %
22.08.2020 22:48 19,3 C 18,3 C 18,3 C 78 % 1016,1 hPa 0,0 l/m 0 min 0 min 0 W/m 19,3 km/h (3 Bft) 100,00 %
22.08.2020 22:50 19,3 C 18,3 C 18,3 C 78 % 1015,9 hPa 0,0 l/m 0 min 0 min 0 W/m 25,7 km/h (4 Bft) 97,87 %
22.08.2020 22:52 19,2 C 18,3 C 18,3 C 77 % 1015,9 hPa 0,0 l/m 0 min 0 min 0 W/m 3,2 km/h (1 Bft) 97,87 %
22.08.2020 22:54 19,2 C 17,8 C 18,3 C 77 % 1016,0 hPa 0,0 l/m 0 min 0 min 0 W/m 22,5 km/h (4 Bft) 100,00 %
22.08.2020 22:56 19,2 C 17,8 C 18,3 C 77 % 1015,9 hPa 0,0 l/m 0 min 0 min 0 W/m 19,3 km/h (3 Bft) 97,87 %
22.08.2020 22:58 19,2 C 17,8 C 18,3 C 77 % 1016,0 hPa 0,0 l/m 0 min 0 min 0 W/m 0,0 km/h (0 Bft) 97,87 %
22.08.2020 23:00 19,1 C 17,8 C 17,8 C 77 % 1016,1 hPa 0,0 l/m 0 min 0 min 0 W/m 3,2 km/h (1 Bft) 97,87 %
22.08.2020 23:02 19,1 C 17,8 C 17,8 C 77 % 1016,1 hPa 0,0 l/m 0 min 0 min 0 W/m 0,0 km/h (0 Bft) 97,87 %
22.08.2020 23:04 19,1 C 17,8 C 17,8 C 77 % 1016,0 hPa 0,0 l/m 0 min 0 min 0 W/m 6,4 km/h (2 Bft) 97,96 %
22.08.2020 23:06 19,1 C 17,8 C 17,8 C 77 % 1016,0 hPa 0,0 l/m 0 min 0 min 0 W/m 3,2 km/h (1 Bft) 97,87 %
22.08.2020 23:08 19,1 C 17,8 C 17,8 C 77 % 1016,1 hPa 0,0 l/m 0 min 0 min 0 W/m 16,1 km/h (3 Bft) 97,87 %
22.08.2020 23:10 19,1 C 17,8 C 17,8 C 77 % 1016,2 hPa 0,0 l/m 0 min 0 min 0 W/m 3,2 km/h (1 Bft) 97,87 %
22.08.2020 23:12 19,0 C 17,8 C 17,8 C 77 % 1016,2 hPa 0,0 l/m 0 min 0 min 0 W/m 16,1 km/h (3 Bft) 93,62 %
22.08.2020 23:14 19,0 C 17,8 C 17,8 C 77 % 1016,1 hPa 0,0 l/m 0 min 0 min 0 W/m 6,4 km/h (2 Bft) 97,87 %
22.08.2020 23:16 19,0 C 17,8 C 17,8 C 77 % 1016,1 hPa 0,0 l/m 0 min 0 min 0 W/m 0,0 km/h (0 Bft) 97,83 %
22.08.2020 23:18 19,0 C 17,8 C 17,8 C 77 % 1016,1 hPa 0,0 l/m 0 min 0 min 0 W/m 3,2 km/h (1 Bft) 97,22 %
22.08.2020 23:20 19,0 C 17,8 C 17,8 C 77 % 1016,2 hPa 0,0 l/m 0 min 0 min 0 W/m 3,2 km/h (1 Bft) 95,65 %
22.08.2020 23:22 18,9 C 17,8 C 17,8 C 77 % 1016,2 hPa 0,0 l/m 0 min 0 min 0 W/m 6,4 km/h (2 Bft) 95,74 %
22.08.2020 23:24 18,9 C 17,8 C 17,8 C 77 % 1016,1 hPa 0,0 l/m 0 min 0 min 0 W/m 0,0 km/h (0 Bft) 93,62 %
22.08.2020 23:26 18,9 C 17,8 C 17,8 C 77 % 1016,1 hPa 0,0 l/m 0 min 0 min 0 W/m 9,7 km/h (2 Bft) 95,74 %
22.08.2020 23:28 18,9 C 17,8 C 17,8 C 77 % 1016,1 hPa 0,0 l/m 0 min 0 min 0 W/m 6,4 km/h (2 Bft) 95,74 %
22.08.2020 23:30 18,9 C 17,8 C 17,8 C 77 % 1016,1 hPa 0,0 l/m 0 min 0 min 0 W/m 3,2 km/h (1 Bft) 95,74 %
22.08.2020 23:32 18,9 C 17,8 C 17,8 C 77 % 1016,1 hPa 0,0 l/m 0 min 0 min 0 W/m 9,7 km/h (2 Bft) 95,65 %
22.08.2020 23:34 18,9 C 17,8 C 17,8 C 78 % 1016,0 hPa 0,0 l/m 0 min 0 min 0 W/m 3,2 km/h (1 Bft) 95,74 %
22.08.2020 23:36 18,8 C 17,8 C 17,8 C 78 % 1016,1 hPa 0,0 l/m 0 min 0 min 0 W/m 0,0 km/h (0 Bft) 93,62 %
22.08.2020 23:38 18,8 C 17,2 C 17,8 C 78 % 1016,1 hPa 0,0 l/m 0 min 0 min 0 W/m 3,2 km/h (1 Bft) 93,62 %
22.08.2020 23:40 18,8 C 17,2 C 17,8 C 78 % 1016,1 hPa 0,0 l/m 0 min 0 min 0 W/m 0,0 km/h (0 Bft) 89,36 %
22.08.2020 23:42 18,8 C 17,2 C 17,8 C 78 % 1016,0 hPa 0,0 l/m 0 min 0 min 0 W/m 6,4 km/h (2 Bft) 95,65 %
22.08.2020 23:44 18,8 C 17,2 C 17,8 C 78 % 1016,1 hPa 0,0 l/m 0 min 0 min 0 W/m 6,4 km/h (2 Bft) 93,62 %
22.08.2020 23:46 18,7 C 17,2 C 17,8 C 78 % 1016,0 hPa 0,0 l/m 0 min 0 min 0 W/m 0,0 km/h (0 Bft) 91,49 %
22.08.2020 23:48 18,7 C 17,2 C 17,8 C 78 % 1016,0 hPa 0,0 l/m 0 min 0 min 0 W/m 6,4 km/h (2 Bft) 95,74 %
22.08.2020 23:50 18,7 C 17,2 C 17,8 C 78 % 1016,1 hPa 0,0 l/m 0 min 0 min 0 W/m 16,1 km/h (3 Bft) 95,74 %
22.08.2020 23:52 18,7 C 17,2 C 17,2 C 78 % 1016,0 hPa 0,0 l/m 0 min 0 min 0 W/m 6,4 km/h (2 Bft) 93,62 %
22.08.2020 23:54 18,6 C 17,2 C 17,2 C 78 % 1016,0 hPa 0,0 l/m 0 min 0 min 0 W/m 3,2 km/h (1 Bft) 95,65 %
22.08.2020 23:56 18,6 C 17,2 C 17,2 C 79 % 1016,0 hPa 0,0 l/m 0 min 0 min 0 W/m 6,4 km/h (2 Bft) 95,74 %
22.08.2020 23:58 18,6 C 17,2 C 17,2 C 78 % 1016,1 hPa 0,0 l/m 0 min 0 min 0 W/m 19,3 km/h (3 Bft) 95,74 %
_ Min-Zeit 23:54 23:38 23:52 16:08 00:00 - - - - 00:04 18:20
Minimum _ 18,6 C 17,2 C 17,2 C 51 % 1011,5 hPa - - - - 0,0 km/h (0 Bft) 76,60 %
_ Max-Zeit 15:46 15:42 09:56 06:50 23:10 00:00 08:56 00:00 14:00 15:36 01:02
Maximum _ 26,8 C 31,1 C 27,8 C 86 % 1016,2 hPa 0,0 l/m 2 min 0 min 1041 W/m 70,8 km/h
O-SO (8 Bft)
100,00 %
Durchschnitt _ 22,0 C 22,0 C 21,1 C 72 % 1014,5 hPa #0,0 l/m #7:00 h #0 min. 375 W/m 9,1 km/h (2 Bft) 97,08 %
© 2020 W. Hausmann